Return to Metar
METAR CYNL 190300Z AUTO 04005KT 9SM CLR 20/11 A2959 RMK AO1 SLP001
METAR CYNL 190200Z AUTO 01008KT 9SM CLR 22/10 A2958 RMK AO1 SLP995
METAR CYNL 190100Z AUTO 01014G20KT 9SM CLR 24/07 A2956 RMK AO1 SLP990
METAR CYNL 190000Z AUTO 09007KT 050V120 9SM CLR 25/04 A2955 RMK AO1 SLP988
METAR CYNL 182300Z AUTO 08009KT 040V130 9SM CLR 27/05 A2954 RMK AO1 SLP989
METAR CYNL 182200Z AUTO 33004KT 290V020 9SM CLR 27/04 A2954 RMK AO1 SLP991
METAR CYNL 182100Z AUTO 00004KT 9SM FEW110 25/04 A2956 RMK AO1 SLP998
METAR CYNL 182000Z AUTO 03009KT 9SM FEW082 25/06 A2957 RMK AO1 SLP000
METAR CYNL 181900Z AUTO 18006KT 9SM CLR 25/06 A2957 RMK AO1 SLP002
METAR CYNL 181800Z AUTO 12003KT 9SM CLR 24/07 A2958 RMK AO1 SLP003
METAR CYNL 181700Z AUTO 25003KT 9SM CLR 23/06 A2958 RMK AO1 SLP004
METAR CYNL 181600Z AUTO 00000KT 9SM CLR 24/07 A2959 RMK AO1 SLP005
METAR CYNL 181500Z AUTO 00000KT 9SM CLR 24/08 A2960 RMK AO1 SLP006
METAR CYNL 181400Z AUTO 01003KT 9SM CLR 21/09 A2961 RMK AO1 SLP008
METAR CYNL 181300Z AUTO 00000KT 9SM CLR 18/12 A2962 RMK AO1 SLP013
METAR CYNL 181200Z AUTO 27002KT 9SM CLR 14/11 A2962 RMK AO1 SLP017
METAR CYNL 181100Z AUTO 24003KT 9SM CLR 12/11 A2962 RMK AO1 SLP019
METAR CYNL 181000Z AUTO 25003KT 9SM CLR 11/10 A2962 RMK AO1 SLP019
METAR CYNL 180900Z AUTO 00000KT 9SM CLR 12/10 A2962 RMK AO1 SLP019
METAR CYNL 180800Z AUTO 00000KT 9SM CLR 12/11 A2963 RMK AO1 SLP021
METAR CYNL 180700Z AUTO 00000KT 9SM CLR 14/11 A2964 RMK AO1 SLP021
METAR CYNL 180600Z AUTO 00000KT 9SM CLR 15/11 A2964 RMK AO1 SLP022
METAR CYNL 180500Z AUTO 23003KT 9SM CLR 17/10 A2964 RMK AO1 SLP022
METAR CYNL 180400Z AUTO 18004KT 9SM CLR 19/09 A2965 RMK AO1 SLP022
METAR CYNL 180300Z AUTO 16005KT 9SM CLR 22/07 A2964 RMK AO1 SLP018
METAR CYNL 180200Z AUTO 17006KT 9SM CLR 24/07 A2964 RMK AO1 SLP018
METAR CYNL 180100Z AUTO 18007KT 9SM CLR 25/06 A2965 RMK AO1 SLP021
METAR CYNL 180000Z AUTO 13006KT 9SM CLR 24/05 A2966 RMK AO1 SLP028
METAR CYNL 172300Z AUTO 15004KT 9SM FEW100 25/05 A2967 RMK AO1 SLP034
METAR CYNL 172200Z AUTO 21009G19KT 160V270 9SM SCT082 26/05 A2968 RMK AO1 SLP039
METAR CYNL 172100Z AUTO 25004KT 9SM FEW078 26/05 A2970 RMK AO1 SLP046
METAR CYNL 172000Z AUTO 23006KT 9SM FEW078 25/05 A2972 RMK AO1 SLP050
METAR CYNL 171900Z AUTO 21009G15KT 170V240 9SM CLR 25/05 A2973 RMK AO1 SLP055
METAR CYNL 171800Z AUTO 18007KT 9SM CLR 24/05 A2975 RMK AO1 SLP059
METAR CYNL 171700Z AUTO 20009KT 9SM CLR 24/06 A2976 RMK AO1 SLP064
METAR CYNL 171600Z AUTO 20007KT 9SM CLR 23/06 A2978 RMK AO1 SLP071
METAR CYNL 171500Z AUTO 21006KT 9SM CLR 22/07 A2979 RMK AO1 SLP074
METAR CYNL 171400Z AUTO 22006KT 9SM CLR 20/08 A2980 RMK AO1 SLP078
METAR CYNL 171300Z AUTO 23003KT 9SM CLR 17/10 A2981 RMK AO1 SLP080
METAR CYNL 171200Z AUTO 00000KT 9SM CLR 13/10 A2981 RMK AO1 SLP084
METAR CYNL 171100Z AUTO 23002KT 9SM FEW098 12/11 A2981 RMK AO1 SLP085
METAR CYNL 171000Z AUTO 23002KT 9SM CLR 12/11 A2982 RMK AO1 SLP086
METAR CYNL 170900Z AUTO 00000KT 9SM FEW130 13/10 A2982 RMK AO1 SLP088
METAR CYNL 170800Z AUTO 00000KT 9SM CLR 14/10 A2983 RMK AO1 SLP089
METAR CYNL 170700Z AUTO 25002KT 9SM CLR 15/10 A2983 RMK AO1 SLP090
METAR CYNL 170600Z AUTO 22002KT 9SM OVC120 17/09 A2984 RMK AO1 SLP092
METAR CYNL 170500Z AUTO 19003KT 9SM SCT120 BKN140 17/09 A2985 RMK AO1 SLP094
METAR CYNL 170400Z AUTO 00000KT 9SM BKN140 17/10 A2985 RMK AO1 SLP094
METAR CYNL 170300Z AUTO 20003KT 9SM CLR 19/08 A2985 RMK AO1 SLP095
METAR CYNL 170200Z AUTO 23007KT 9SM CLR 22/08 A2985 RMK AO1 SLP094
METAR CYNL 170100Z AUTO 25009KT 9SM CLR 23/07 A2986 RMK AO1 SLP098
METAR CYNL 170000Z AUTO 25006KT 9SM CLR 25/06 A2985 RMK AO1 SLP098
METAR CYNL 162300Z AUTO 21006KT 9SM CLR 25/05 A2986 RMK AO1 SLP100
METAR CYNL 162200Z AUTO 29007KT 240V340 9SM FEW072 24/06 A2987 RMK AO1 SLP107
METAR CYNL 162100Z AUTO 27007KT 220V310 9SM CLR 24/05 A2988 RMK AO1 SLP111
METAR CYNL 162000Z AUTO 26009KT 9SM CLR 23/06 A2989 RMK AO1 SLP115
METAR CYNL 161900Z AUTO 25006KT 9SM FEW130 SCT200 21/08 A2990 RMK AO1 SLP119
METAR CYNL 161800Z AUTO 28004KT 9SM FEW092 SCT210 21/08 A2991 RMK AO1 SLP121
METAR CYNL 161700Z AUTO 27008KT 9SM FEW100 SCT200 21/06 A2991 RMK AO1 SLP120
METAR CYNL 161600Z AUTO 26005KT 9SM CLR 21/07 A2991 RMK AO1 SLP119
METAR CYNL 161500Z AUTO 26005KT 9SM FEW074 20/07 A2991 RMK AO1 SLP120
METAR CYNL 161400Z AUTO 29002KT 9SM FEW084 15/09 A2991 RMK AO1 SLP120
METAR CYNL 161300Z AUTO 24002KT 9SM FEW070 13/09 A2990 RMK AO1 SLP117
METAR CYNL 161200Z AUTO 23002KT 9SM FEW072 SCT120 12/09 A2990 RMK AO1 SLP118
METAR CYNL 161100Z AUTO 24003KT 9SM BKN090 11/09 A2990 RMK AO1 SLP119
METAR CYNL 161000Z AUTO 23002KT 9SM SCT076 11/08 A2989 RMK AO1 SLP117
METAR CYNL 160900Z AUTO 24003KT 9SM SCT090 11/09 A2989 RMK AO1 SLP117
METAR CYNL 160800Z AUTO 25003KT 9SM FEW100 SCT140 12/08 A2989 RMK AO1 SLP118
METAR CYNL 160700Z AUTO 23002KT 9SM BKN096 12/08 A2989 RMK AO1 SLP118
METAR CYNL 160600Z AUTO 24003KT 9SM CLR 12/08 A2989 RMK AO1 SLP116
METAR CYNL 160500Z AUTO 28002KT 9SM CLR 13/09 A2989 RMK AO1 SLP116
METAR CYNL 160400Z AUTO 29003KT 9SM CLR 15/08 A2988 RMK AO1 SLP113
METAR CYNL 160300Z AUTO 32002KT 9SM CLR 20/08 A2987 RMK AO1 SLP106
METAR CYNL 160200Z AUTO 30005KT 9SM CLR 21/04 A2987 RMK AO1 SLP105
METAR CYNL 160100Z AUTO 34007KT 9SM CLR 21/04 A2986 RMK AO1 SLP103
METAR CYNL 160000Z AUTO 34005KT 9SM BKN078 20/05 A2987 RMK AO1 SLP107
METAR CYNL 152300Z AUTO 32005KT 9SM SCT066 BKN084 20/04 A2986 RMK AO1 SLP107
METAR CYNL 152200Z AUTO 35007KT 9SM SCT082 20/04 A2986 RMK AO1 SLP107
METAR CYNL 152100Z AUTO 35008KT 9SM FEW060 20/05 A2986 RMK AO1 SLP107
METAR CYNL 152000Z AUTO 01005KT 9SM FEW056 SCT066 19/05 A2986 RMK AO1 SLP107
METAR CYNL 151900Z AUTO 35009KT 9SM FEW056 19/06 A2985 RMK AO1 SLP104
METAR CYNL 151800Z AUTO 35008KT 9SM BKN048 18/06 A2985 RMK AO1 SLP105
METAR CYNL 151700Z AUTO 33008KT 9SM BKN042 17/07 A2984 RMK AO1 SLP102
SPECI CYNL 151606Z AUTO 31011KT 9SM SCT032 17/09 A2984 RMK AO1 WSHFT (16)06 SLP102
METAR CYNL 151600Z AUTO 00008KT 9SM FEW032 17/08 A2984 RMK AO1 SLP102
METAR CYNL 151500Z AUTO 01008KT 9SM FEW025 15/09 A2984 RMK AO1 SLP103
METAR CYNL 151400Z AUTO 35007KT 9SM FEW019 15/09 A2983 RMK AO1 SLP100
METAR CYNL 151300Z AUTO 01007KT 9SM BKN078 13/10 A2982 RMK AO1 SLP098
METAR CYNL 151200Z AUTO 02005KT 9SM BKN076 BKN096 12/10 A2981 RMK AO1 SLP092
SPECI CYNL 151119Z AUTO 02006KT 9SM SCT018 OVC068 11/09 A2980 RMK AO1 SLP088
METAR CYNL 151100Z AUTO 02005KT 9SM OVC018 11/10 A2980 RMK AO1 SLP088
METAR CYNL 151000Z AUTO 03009KT 9SM OVC015 11/09 A2978 RMK AO1 SLP080
SPECI CYNL 150942Z AUTO 02007KT 9SM OVC015 11/10 A2978 RMK AO1 SLP077
METAR CYNL 150900Z AUTO 05005KT 9SM OVC012 12/10 A2977 RMK AO1 SLP075
METAR CYNL 150800Z AUTO 04003KT 9SM FEW008 SCT010 OVC012 12/12 A2977 RMK AO1 SLP074
SPECI CYNL 150756Z AUTO 02003KT 9SM FEW008 SCT009 OVC012 12/12 A2977 RMK AO1 SLP074
SPECI CYNL 150755Z AUTO 02003KT 9SM SCT008 BKN009 OVC012 12/12 A2977 RMK AO1 SLP074
SPECI CYNL 150753Z AUTO 00004KT 9SM SCT008 BKN010 OVC012 12/12 A2977 RMK AO1 SLP074
SPECI CYNL 150743Z AUTO 32003KT 9SM BKN009 OVC013 12/12 A2977 RMK AO1 SLP073
SPECI CYNL 150726Z AUTO 33002KT 9SM FEW008 BKN010 BKN016 12/12 A2976 RMK AO1 SLP071
SPECI CYNL 150712Z AUTO 32003KT 9SM SCT016 BKN019 12/12 A2976 RMK AO1 SLP070
METAR CYNL 150700Z AUTO 00000KT 9SM FEW090 12/12 A2975 RMK AO1 SLP069
SPECI CYNL 150629Z AUTO 29004KT 9SM SCT007 13/12 A2976 RMK AO1 SLP069
SPECI CYNL 150628Z AUTO 29004KT 9SM SCT007 BKN012 13/12 A2976 RMK AO1 SLP069
METAR CYNL 150600Z AUTO 29006KT 9SM BKN008 OVC011 13/13 A2976 RMK AO1 SLP070
SPECI CYNL 150555Z AUTO 28006KT 9SM BKN008 BKN011 OVC013 13/12 A2976 RMK AO1 SLP071
SPECI CYNL 150539Z AUTO 28004KT 9SM FEW005 SCT006 BKN010 13/13 A2976 RMK AO1 SLP071
SPECI CYNL 150508Z AUTO 29003KT 9SM FEW003 SCT005 BKN009 13/12 A2976 RMK AO1 SLP070
SPECI CYNL 150506Z AUTO 28003KT 9SM FEW003 SCT005 BKN013 13/12 A2976 RMK AO1 SLP071
METAR CYNL 150500Z AUTO 27003KT 9SM FEW003 SCT013 12/12 A2976 RMK AO1 SLP071
SPECI CYNL 150457Z AUTO 27003KT 9SM FEW008 12/12 A2976 RMK AO1 PRESRR SLP072
METAR CYNL 150400Z AUTO 26003KT 9SM FEW074 13/12 A2975 RMK AO1 PRESRR SLP069
METAR CYNL 150300Z AUTO 07005KT 9SM FEW012 SCT039 BKN060 13/11 A2973 RMK AO1 PRESFR SLP062
SPECI CYNL 150256Z AUTO 06005KT 9SM FEW012 SCT039 BKN058 13/11 A2973 RMK AO1 SLP065
SPECI CYNL 150254Z AUTO 06004KT 9SM VV028 13/11 A2974 RMK AO1 SLP066
SPECI CYNL 150239Z AUTO 09009KT 7SM FEW009 BKN040 BKN052 13/11 A2974 RMK AO1 SLP067
SPECI CYNL 150229Z AUTO VRB03KT 3SM BKN041 OVC052 14/11 A2976 RMK AO1 SLP073
SPECI CYNL 150209Z AUTO VRB11KT 2 1/2SM FEW024 OVC041 14/10 A2977 RMK AO1 SLP078
SPECI CYNL 150207Z AUTO VRB11KT 3SM FEW030 OVC041 14/10 A2978 RMK AO1 SLP079
SPECI CYNL 150204Z AUTO 02011KT 330V070 2SM FEW023 OVC043 14/10 A2976 RMK AO1 SLP074
SPECI CYNL 150203Z AUTO 01008KT 1 1/4SM FEW024 OVC043 13/10 A2976 RMK AO1 SLP073
METAR CYNL 150200Z AUTO 34010KT 3/4SM VV034 14/10 A2975 RMK AO1 SLP071
SPECI CYNL 150157Z AUTO 35011KT 310V040 1SM VV031 14/10 A2975 RMK AO1 PRESFR SLP072
SPECI CYNL 150156Z AUTO 00011KT 310V050 3/4SM VV031 14/10 A2975 RMK AO1 PRESFR SLP072
SPECI CYNL 150153Z AUTO 00010KT 310V050 1/2SM VV036 15/11 A2976 RMK AO1 PRESFR SLP072
SPECI CYNL 150152Z AUTO 00010KT 320V050 3/4SM VV037 15/11 A2976 RMK AO1 PRESFR SLP072
SPECI CYNL 150147Z AUTO 05003KT 1 1/4SM VV044 17/09 A2975 RMK AO1 PRESFR SLP069
SPECI CYNL 150146Z AUTO 05004KT 1 1/2SM BKN044 BKN056 17/08 A2975 RMK AO1 PRESFR SLP069
SPECI CYNL 150144Z AUTO 05003KT 2 1/2SM SCT045 BKN056 17/08 A2975 RMK AO1 PRESFR SLP068
METAR CYNL 150100Z AUTO 06007KT 9SM SCT050 18/07 A2975 RMK AO1 PRESFR SLP066
METAR CYNL 150000Z AUTO 07008KT 9SM BKN052 18/06 A2977 RMK AO1 PRESFR SLP075
METAR CYNL 142300Z AUTO 11004KT 9SM BKN058 20/06 A2979 RMK AO1 SLP084
METAR CYNL 142200Z AUTO 16006KT 7SM BKN068 21/04 A2980 RMK AO1 SLP089
METAR CYNL 142100Z AUTO 21006KT 160V260 9SM FEW078 21/03 A2982 RMK AO1 PRESFR SLP095
METAR CYNL 142000Z AUTO 23005KT 170V280 9SM SCT140 20/03 A2985 RMK AO1 SLP106
METAR CYNL 141900Z AUTO 26008KT 9SM FEW130 SCT200 20/03 A2987 RMK AO1 SLP110
METAR CYNL 141800Z AUTO 17004KT 9SM CLR 19/02 A2988 RMK AO1 SLP114
METAR CYNL 141700Z AUTO 12003KT 9SM CLR 19/03 A2989 RMK AO1 PRESFR SLP117
METAR CYNL 141600Z AUTO 27003KT 9SM CLR 18/03 A2991 RMK AO1 SLP124
METAR CYNL 141500Z AUTO 03004KT 340V080 9SM CLR 17/02 A2992 RMK AO1 SLP125
METAR CYNL 141400Z AUTO 33004KT 9SM CLR 15/06 A2992 RMK AO1 SLP125
METAR CYNL 141300Z AUTO 30002KT 9SM CLR 13/06 A2993 RMK AO1 SLP130
METAR CYNL 141200Z AUTO 23002KT 9SM CLR 10/06 A2992 RMK AO1 SLP132
METAR CYNL 141100Z AUTO 27003KT 9SM CLR 08/06 A2991 RMK AO1 SLP129
METAR CYNL 141000Z AUTO 30005KT 9SM CLR 09/05 A2991 RMK AO1 SLP126
METAR CYNL 140900Z AUTO 31005KT 9SM CLR 09/04 A2991 RMK AO1 SLP126
METAR CYNL 140800Z AUTO 27003KT 9SM SCT064 10/06 A2991 RMK AO1 SLP125
METAR CYNL 140700Z AUTO 28003KT 9SM CLR 11/06 A2990 RMK AO1 SLP122
METAR CYNL 140600Z AUTO 31005KT 9SM FEW070 12/05 A2989 RMK AO1 SLP119
METAR CYNL 140500Z AUTO 26004KT 9SM SCT066 14/07 A2988 RMK AO1 SLP113
METAR CYNL 140400Z AUTO 00000KT 9SM BKN068 15/09 A2987 RMK AO1 SLP111
METAR CYNL 140300Z AUTO 22003KT 9SM FEW062 BKN088 17/06 A2987 RMK AO1 SLP107
METAR CYNL 140200Z AUTO 00000KT 9SM SCT062 BKN088 17/06 A2987 RMK AO1 SLP109
METAR CYNL 140100Z AUTO 22005KT 9SM BKN066 18/05 A2986 RMK AO1 SLP109
METAR CYNL 140000Z AUTO 26005KT 9SM BKN070 18/04 A2986 RMK AO1 SLP108
METAR CYNL 132300Z AUTO 23009KT 9SM SCT060 19/04 A2987 RMK AO1 SLP110
METAR CYNL 132200Z AUTO 22006KT 9SM SCT066 18/05 A2988 RMK AO1 SLP114
METAR CYNL 132100Z AUTO 23007KT 9SM FEW052 SCT100 18/04 A2988 RMK AO1 SLP116
METAR CYNL 132000Z AUTO 22006KT 190V260 9SM SCT058 18/04 A2989 RMK AO1 SLP121
METAR CYNL 131900Z AUTO 16004KT 130V200 9SM FEW170 17/04 A2989 RMK AO1 SLP121
METAR CYNL 131800Z AUTO 25006KT 200V290 9SM FEW120 SCT210 16/05 A2990 RMK AO1 SLP124
METAR CYNL 131700Z AUTO 24004KT 9SM FEW032 SCT044 15/07 A2991 RMK AO1 SLP128
METAR CYNL 131600Z AUTO 14002KT 9SM FEW180 15/06 A2991 RMK AO1 SLP129
METAR CYNL 131500Z AUTO 10003KT 9SM FEW190 14/07 A2991 RMK AO1 SLP128
METAR CYNL 131400Z AUTO 09004KT 9SM CLR 12/08 A2991 RMK AO1 SLP128
METAR CYNL 131300Z AUTO 07005KT 9SM FEW094 11/09 A2990 RMK AO1 SLP125
METAR CYNL 131200Z AUTO 04002KT 9SM CLR 11/09 A2989 RMK AO1 SLP122
METAR CYNL 131100Z AUTO 34003KT 9SM FEW096 SCT120 11/09 A2987 RMK AO1 SLP114
METAR CYNL 131000Z AUTO 34004KT 9SM OVC110 11/09 A2985 RMK AO1 SLP107
METAR CYNL 130900Z AUTO 29003KT 9SM BKN130 11/08 A2985 RMK AO1 SLP106
METAR CYNL 130800Z AUTO 27004KT 9SM BKN130 10/08 A2985 RMK AO1 SLP100
METAR CYNL 130700Z AUTO 27004KT 9SM BKN130 11/08 A2984 RMK AO1 SLP096
METAR CYNL 130600Z AUTO 28003KT 9SM BKN140 11/08 A2984 RMK AO1 SLP094
METAR CYNL 130500Z AUTO 29003KT 9SM CLR 12/08 A2982 RMK AO1 PRESRR SLP089
METAR CYNL 130400Z AUTO 32006KT 9SM BKN096 13/08 A2979 RMK AO1 SLP079
METAR CYNL 130300Z AUTO 33005KT 9SM FEW020 SCT027 BKN086 14/09 A2978 RMK AO1 SLP075
SPECI CYNL 130254Z AUTO 33006KT 9SM FEW020 SCT027 BKN086 14/09 A2978 RMK AO1 SLP077
SPECI CYNL 130242Z AUTO 34007KT 9SM FEW020 BKN026 14/09 A2978 RMK AO1 SLP077
SPECI CYNL 130239Z AUTO 35007KT 9SM BKN024 BKN072 14/09 A2978 RMK AO1 SLP076
SPECI CYNL 130229Z AUTO 34007KT 9SM BKN025 BKN072 14/09 A2978 RMK AO1 SLP075
METAR CYNL 130200Z AUTO 33005KT 9SM BKN070 14/09 A2977 RMK AO1 SLP072
METAR CYNL 130100Z AUTO 34003KT 9SM BKN082 15/10 A2976 RMK AO1 PRESRR SLP069
METAR CYNL 130000Z AUTO 34007KT 9SM SCT082 17/11 A2973 RMK AO1 PRESRR SLP061
METAR CYNL 122300Z AUTO 35005KT 9SM SCT074 17/11 A2971 RMK AO1 SLP056
SPECI CYNL 122215Z AUTO 00004KT 9SM FEW009 18/10 A2969 RMK AO1 PRESRR SLP051
METAR CYNL 122200Z AUTO 32010G19KT 9SM FEW082 19/09 A2970 RMK AO1 PRESRR SLP055
SPECI CYNL 122113Z AUTO 29015G27KT 9SM SCT080 24/08 A2965 RMK AO1 WSHFT (21)13 SLP032
METAR CYNL 122100Z AUTO 24012G24KT 9SM FEW080 SCT110 24/06 A2964 RMK AO1 SLP029
METAR CYNL 122000Z AUTO 24012G24KT 9SM FEW190 25/07 A2965 RMK AO1 SLP031
METAR CYNL 121900Z AUTO 23009G21KT 9SM CLR 25/06 A2966 RMK AO1 SLP033
METAR CYNL 121800Z AUTO 25011G21KT 9SM CLR 24/06 A2967 RMK AO1 PRESFR SLP038
METAR CYNL 121700Z AUTO 22013G20KT 9SM CLR 23/07 A2969 RMK AO1 SLP047
METAR CYNL 121600Z AUTO 22010G18KT 9SM CLR 22/08 A2971 RMK AO1 SLP051
METAR CYNL 121500Z AUTO 21008KT 9SM CLR 20/08 A2972 RMK AO1 SLP054
METAR CYNL 121400Z AUTO 21008KT 9SM CLR 19/08 A2973 RMK AO1 SLP057
METAR CYNL 121300Z AUTO 22006KT 9SM CLR 16/07 A2975 RMK AO1 SLP062
METAR CYNL 121200Z AUTO 24004KT 9SM CLR 13/08 A2975 RMK AO1 SLP067
METAR CYNL 121100Z AUTO 23004KT 9SM CLR 11/08 A2976 RMK AO1 SLP070
METAR CYNL 121000Z AUTO 24005KT 9SM CLR 10/07 A2976 RMK AO1 SLP073
METAR CYNL 120900Z AUTO 23004KT 9SM CLR 10/07 A2976 RMK AO1 SLP073
METAR CYNL 120800Z AUTO 24004KT 9SM CLR 10/07 A2978 RMK AO1 SLP078
METAR CYNL 120700Z AUTO 23003KT 9SM CLR 11/07 A2978 RMK AO1 SLP077
METAR CYNL 120600Z AUTO 23003KT 9SM CLR 12/07 A2978 RMK AO1 SLP078
METAR CYNL 120500Z AUTO 25004KT 9SM CLR 13/07 A2979 RMK AO1 SLP080
METAR CYNL 120400Z AUTO 21002KT 9SM CLR 15/07 A2979 RMK AO1 SLP078
METAR CYNL 120300Z AUTO 19003KT 9SM CLR 19/04 A2979 RMK AO1 SLP078
METAR CYNL 120200Z AUTO 25004KT 9SM CLR 21/02 A2980 RMK AO1 SLP079
METAR CYNL 120100Z AUTO 26006KT 9SM CLR 21/01 A2980 RMK AO1 SLP081
METAR CYNL 120000Z AUTO 28007KT 240V330 9SM CLR 22/01 A2981 RMK AO1 SLP083
METAR CYNL 112300Z AUTO 33003KT 9SM BKN086 20/01 A2982 RMK AO1 SLP091
METAR CYNL 112200Z AUTO 31008KT 260V010 9SM SCT092 20/M00 A2982 RMK AO1 SLP094
METAR CYNL 112100Z AUTO 31005KT 9SM CLR 20/01 A2983 RMK AO1 SLP097
METAR CYNL 112000Z AUTO 30007KT 9SM FEW190 21/M01 A2983 RMK AO1 SLP097
METAR CYNL 111900Z AUTO 28007KT 240V330 9SM FEW086 SCT200 20/00 A2984 RMK AO1 SLP098
METAR CYNL 111800Z AUTO 33004KT 9SM FEW072 19/00 A2985 RMK AO1 SLP102
METAR CYNL 111700Z AUTO 23006KT 170V290 9SM FEW062 19/02 A2985 RMK AO1 SLP102
METAR CYNL 111600Z AUTO 04006KT 340V100 9SM SCT054 18/03 A2985 RMK AO1 SLP103
METAR CYNL 111500Z AUTO 03004KT 9SM CLR 18/04 A2986 RMK AO1 SLP105
METAR CYNL 111400Z AUTO 35005KT 9SM FEW088 16/05 A2987 RMK AO1 SLP107
METAR CYNL 111300Z AUTO 31003KT 9SM SCT086 14/06 A2987 RMK AO1 SLP110
METAR CYNL 111200Z AUTO 00000KT 9SM BKN084 11/08 A2988 RMK AO1 SLP115
METAR CYNL 111100Z AUTO 00000KT 9SM BKN076 10/07 A2988 RMK AO1 SLP114
METAR CYNL 111000Z AUTO 00000KT 9SM BKN110 09/08 A2988 RMK AO1 SLP116
METAR CYNL 110900Z AUTO 33002KT 9SM CLR 09/07 A2988 RMK AO1 SLP116
METAR CYNL 110800Z AUTO 31002KT 9SM FEW100 11/08 A2989 RMK AO1 SLP117
METAR CYNL 110700Z AUTO 30003KT 9SM OVC120 12/07 A2989 RMK AO1 SLP118
METAR CYNL 110600Z AUTO 00000KT 9SM BKN100 BKN120 13/08 A2990 RMK AO1 SLP121
METAR CYNL 110500Z AUTO 00000KT 9SM OVC120 13/07 A2991 RMK AO1 SLP122
METAR CYNL 110400Z AUTO 26003KT 9SM OVC110 15/06 A2992 RMK AO1 SLP127
METAR CYNL 110300Z AUTO 22005KT 9SM BKN110 16/05 A2993 RMK AO1 SLP131
METAR CYNL 110200Z AUTO 21005KT 9SM FEW120 17/07 A2994 RMK AO1 SLP133
METAR CYNL 110100Z AUTO 24008KT 3SM FEW052 SCT068 BKN100 16/08 A2995 RMK AO1 SLP139
METAR CYNL 110000Z AUTO 23009G18KT 9SM CLR 20/03 A2995 RMK AO1 SLP138
METAR CYNL 102300Z AUTO 24012G19KT 9SM CLR 19/03 A2997 RMK AO1 SLP149
METAR CYNL 102200Z AUTO 23008G15KT 9SM FEW180 19/03 A2999 RMK AO1 PRESFR SLP156
METAR CYNL 102100Z AUTO 24009G15KT 9SM FEW170 19/03 A3001 RMK AO1 SLP164
METAR CYNL 102000Z AUTO 25011G17KT 9SM FEW074 SCT094 19/01 A3002 RMK AO1 SLP168
METAR CYNL 101900Z AUTO 23008KT 9SM SCT064 18/01 A3003 RMK AO1 SLP171
METAR CYNL 101800Z AUTO 25008G15KT 9SM BKN062 18/02 A3005 RMK AO1 SLP176
METAR CYNL 101700Z AUTO 25011KT 210V280 9SM FEW054 17/03 A3006 RMK AO1 SLP181
METAR CYNL 101600Z AUTO 22006KT 9SM CLR 16/03 A3008 RMK AO1 SLP188
METAR CYNL 101500Z AUTO 22005KT 9SM CLR 15/04 A3009 RMK AO1 SLP189
METAR CYNL 101400Z AUTO 26007KT 9SM CLR 14/03 A3010 RMK AO1 SLP192
METAR CYNL 101300Z AUTO 26004KT 9SM CLR 11/04 A3010 RMK AO1 SLP194
METAR CYNL 101200Z AUTO 24002KT 9SM CLR 08/05 A3011 RMK AO1 SLP200
METAR CYNL 101100Z AUTO 24003KT 9SM CLR 07/05 A3010 RMK AO1 SLP199
METAR CYNL 101000Z AUTO 26003KT 9SM CLR 06/05 A3010 RMK AO1 SLP201
METAR CYNL 100900Z AUTO 24003KT 9SM CLR 05/04 A3009 RMK AO1 SLP195
METAR CYNL 100800Z AUTO 23003KT 9SM CLR 06/05 A3009 RMK AO1 SLP197
METAR CYNL 100700Z AUTO 25002KT 9SM CLR 08/04 A3009 RMK AO1 SLP193
METAR CYNL 100600Z AUTO 28004KT 9SM CLR 08/04 A3009 RMK AO1 SLP194
METAR CYNL 100500Z AUTO 29004KT 9SM CLR 09/04 A3009 RMK AO1 SLP195
METAR CYNL 100400Z AUTO 31004KT 9SM CLR 12/03 A3009 RMK AO1 SLP193
METAR CYNL 100300Z AUTO 29004KT 9SM BKN058 14/02 A3008 RMK AO1 SLP188
METAR CYNL 100200Z AUTO 28007KT 9SM OVC056 14/01 A3008 RMK AO1 SLP187
METAR CYNL 100100Z AUTO 28009G15KT 9SM OVC058 14/01 A3008 RMK AO1 SLP188
METAR CYNL 100000Z AUTO 30011G17KT 9SM BKN062 15/01 A3007 RMK AO1 SLP185
METAR CYNL 092300Z AUTO 28010G16KT 9SM BKN062 15/01 A3006 RMK AO1 SLP185
METAR CYNL 092200Z AUTO 26011G21KT 9SM BKN064 16/01 A3006 RMK AO1 SLP182
METAR CYNL 092100Z AUTO 30012G17KT 9SM FEW050 15/00 A3005 RMK AO1 SLP179
METAR CYNL 092000Z AUTO 30013G18KT 9SM BKN054 14/00 A3004 RMK AO1 SLP177
METAR CYNL 091900Z AUTO 30013G21KT 9SM FEW048 SCT130 13/01 A3003 RMK AO1 SLP175
METAR CYNL 091800Z AUTO 29008G19KT 9SM BKN049 13/02 A3003 RMK AO1 SLP174
METAR CYNL 091700Z AUTO 26007KT 9SM BKN049 12/02 A3003 RMK AO1 SLP173
METAR CYNL 091600Z AUTO 30008G17KT 9SM OVC049 12/02 A3002 RMK AO1 SLP171
METAR CYNL 091500Z AUTO 30006G16KT 9SM FEW033 BKN044 12/04 A3002 RMK AO1 SLP169
METAR CYNL 091400Z AUTO 25006KT 9SM BKN090 10/05 A3003 RMK AO1 SLP171
METAR CYNL 091300Z AUTO 25006KT 9SM BKN072 09/05 A3003 RMK AO1 SLP170
METAR CYNL 091200Z AUTO 23005KT 9SM FEW056 08/06 A3002 RMK AO1 SLP167
METAR CYNL 091100Z AUTO 24005KT 9SM SCT052 08/05 A3001 RMK AO1 SLP165
METAR CYNL 091000Z AUTO 26004KT 9SM FEW028 08/05 A3001 RMK AO1 PRESRR SLP163
METAR CYNL 090900Z AUTO 28004KT 9SM SCT090 09/04 A2999 RMK AO1 SLP155
METAR CYNL 090800Z AUTO 29003KT 9SM SCT110 09/04 A2998 RMK AO1 SLP153
METAR CYNL 090700Z AUTO 26003KT 9SM CLR 10/04 A2996 RMK AO1 SLP148
METAR CYNL 090600Z AUTO 28003KT 9SM CLR 11/03 A2995 RMK AO1 SLP143
METAR CYNL 090500Z AUTO 29003KT 9SM CLR 11/03 A2995 RMK AO1 SLP142
METAR CYNL 090400Z AUTO 31003KT 9SM FEW150 SCT190 12/02 A2994 RMK AO1 SLP138
METAR CYNL 090300Z AUTO 31006KT 9SM FEW180 14/02 A2994 RMK AO1 SLP136
METAR CYNL 090200Z AUTO 29008KT 9SM CLR 15/01 A2993 RMK AO1 SLP131
METAR CYNL 090100Z AUTO 31008KT 9SM FEW058 16/01 A2992 RMK AO1 SLP128
METAR CYNL 090000Z AUTO 31008G17KT 9SM CLR 16/02 A2991 RMK AO1 SLP128
METAR CYNL 082300Z AUTO 30012G17KT 260V330 9SM SCT058 16/01 A2990 RMK AO1 SLP126
METAR CYNL 082200Z AUTO 25010G18KT 9SM FEW058 17/02 A2990 RMK AO1 SLP126
METAR CYNL 082100Z AUTO 27009G17KT 9SM FEW054 16/02 A2989 RMK AO1 SLP123
METAR CYNL 082000Z AUTO 28006G18KT 9SM SCT052 16/03 A2988 RMK AO1 WSHFT (19)53 SLP119
SPECI CYNL 081953Z AUTO 27012G18KT 9SM SCT052 15/03 A2989 RMK AO1 WSHFT (19)53 SLP119
METAR CYNL 081900Z AUTO 31009KT 9SM SCT048 BKN058 16/03 A2987 RMK AO1 SLP115
METAR CYNL 081800Z AUTO 30009G16KT 9SM BKN049 15/03 A2987 RMK AO1 SLP113
METAR CYNL 081700Z AUTO 29010G15KT 9SM BKN048 15/03 A2986 RMK AO1 SLP110
METAR CYNL 081600Z AUTO 29011KT 9SM BKN041 14/04 A2987 RMK AO1 SLP110
METAR CYNL 081500Z AUTO 29005KT 9SM FEW032 SCT037 14/05 A2986 RMK AO1 SLP109
METAR CYNL 081400Z AUTO 00007KT 9SM CLR 13/06 A2986 RMK AO1 SLP106
METAR CYNL 081300Z AUTO 33007KT 9SM CLR 11/06 A2985 RMK AO1 SLP105
METAR CYNL 081200Z AUTO 33007KT 9SM CLR 10/06 A2985 RMK AO1 SLP103
METAR CYNL 081100Z AUTO 31005KT 9SM CLR 09/06 A2984 RMK AO1 SLP101
METAR CYNL 081000Z AUTO 31006KT 9SM CLR 10/06 A2982 RMK AO1 SLP096
METAR CYNL 080900Z AUTO 31005KT 9SM SCT160 10/06 A2982 RMK AO1 SLP091
METAR CYNL 080800Z AUTO 31007KT 9SM CLR 12/06 A2981 RMK AO1 SLP089
METAR CYNL 080700Z AUTO 31010G15KT 9SM SCT064 BKN082 13/07 A2981 RMK AO1 SLP082
METAR CYNL 080600Z AUTO 30008G16KT 9SM BKN049 14/06 A2980 RMK AO1 SLP078
METAR CYNL 080500Z AUTO 31008G16KT 9SM OVC048 15/07 A2980 RMK AO1 SLP078
METAR CYNL 080400Z AUTO 31008G18KT 9SM BKN092 16/08 A2978 RMK AO1 SLP072
METAR CYNL 080300Z AUTO 31010G15KT 9SM FEW078 SCT094 18/08 A2978 RMK AO1 SLP069
METAR CYNL 080200Z AUTO 26002KT 9SM BKN096 18/10 A2977 RMK AO1 SLP067
METAR CYNL 080100Z AUTO 27004KT 9SM SCT092 19/09 A2976 RMK AO1 SLP063
METAR CYNL 080000Z AUTO 30005KT 9SM SCT110 BKN240 20/10 A2975 RMK AO1 SLP066
METAR CYNL 072300Z AUTO 31005KT 9SM FEW120 20/09 A2976 RMK AO1 SLP071
METAR CYNL 072200Z AUTO 32007KT 9SM FEW086 20/08 A2977 RMK AO1 SLP076
METAR CYNL 072100Z AUTO 30008KT 9SM BKN100 20/07 A2978 RMK AO1 SLP078
METAR CYNL 072000Z AUTO 23009KT 200V270 9SM CLR 24/05 A2977 RMK AO1 SLP072
METAR CYNL 071900Z AUTO 20009G16KT 9SM FEW110 25/05 A2976 RMK AO1 SLP070
METAR CYNL 071800Z AUTO 24010KT 9SM FEW180 24/04 A2978 RMK AO1 SLP076
METAR CYNL 071700Z AUTO 24005KT 9SM CLR 24/04 A2980 RMK AO1 SLP080
METAR CYNL 071600Z AUTO 19008KT 9SM CLR 24/05 A2982 RMK AO1 SLP084
METAR CYNL 071500Z AUTO 23008KT 9SM FEW120 22/05 A2983 RMK AO1 SLP089
METAR CYNL 071400Z AUTO 23006KT 9SM SCT120 20/08 A2985 RMK AO1 SLP093
METAR CYNL 071300Z AUTO 23003KT 9SM SCT120 14/09 A2987 RMK AO1 SLP103
METAR CYNL 071200Z AUTO 00000KT 9SM BKN120 12/10 A2988 RMK AO1 SLP108
METAR CYNL 071100Z AUTO 00000KT 9SM OVC120 11/09 A2989 RMK AO1 SLP114
METAR CYNL 071000Z AUTO 00000KT 9SM OVC120 11/10 A2990 RMK AO1 PRESFR SLP116
METAR CYNL 070900Z AUTO 00000KT 9SM CLR 11/09 A2992 RMK AO1 SLP124
METAR CYNL 070800Z AUTO 00000KT 9SM CLR 10/08 A2993 RMK AO1 SLP127
METAR CYNL 070700Z AUTO 00000KT 9SM FEW120 12/09 A2993 RMK AO1 PRESFR SLP128
METAR CYNL 070600Z AUTO 02003KT 9SM CLR 12/08 A2996 RMK AO1 SLP135
METAR CYNL 070500Z AUTO 04003KT 9SM CLR 15/08 A2996 RMK AO1 SLP135
METAR CYNL 070400Z AUTO 07004KT 9SM CLR 18/09 A2997 RMK AO1 SLP135
METAR CYNL 070300Z AUTO 35002KT 9SM FEW120 22/06 A2998 RMK AO1 SLP136
METAR CYNL 070200Z AUTO 00003KT 9SM CLR 24/06 A2998 RMK AO1 SLP136
METAR CYNL 070100Z AUTO 30005KT 9SM FEW120 24/05 A2999 RMK AO1 SLP140
METAR CYNL 070000Z AUTO 31006KT 9SM FEW082 BKN120 24/03 A3001 RMK AO1 SLP150
METAR CYNL 062300Z AUTO 22005KT 9SM FEW120 25/04 A3002 RMK AO1 PRESFR SLP157
METAR CYNL 062200Z AUTO 29009G17KT 9SM CLR 24/04 A3004 RMK AO1 SLP166
METAR CYNL 062100Z AUTO 29006KT 9SM FEW120 SCT200 24/05 A3006 RMK AO1 SLP172
METAR CYNL 062000Z AUTO 31007KT 9SM FEW072 SCT110 23/05 A3007 RMK AO1 SLP179
METAR CYNL 061900Z AUTO 29012G19KT 9SM FEW078 23/05 A3009 RMK AO1 WSHFT (18)57 SLP181
SPECI CYNL 061857Z AUTO 30010G19KT 9SM FEW076 23/05 A3009 RMK AO1 WSHFT (18)57 SLP180
METAR CYNL 061800Z AUTO 26010G18KT 9SM FEW080 SCT110 22/04 A3010 RMK AO1 SLP187
METAR CYNL 061700Z AUTO 29009G15KT 9SM FEW092 22/04 A3011 RMK AO1 SLP188
METAR CYNL 061600Z AUTO 25005KT 9SM FEW078 22/05 A3011 RMK AO1 SLP190
METAR CYNL 061500Z AUTO 29009KT 9SM CLR 21/04 A3013 RMK AO1 SLP194
METAR CYNL 061400Z AUTO 27006KT 9SM CLR 20/05 A3015 RMK AO1 SLP195
METAR CYNL 061300Z AUTO 23003KT 9SM CLR 14/07 A3016 RMK AO1 SLP202
METAR CYNL 061200Z AUTO 23004KT 9SM CLR 11/08 A3016 RMK AO1 SLP206
METAR CYNL 061100Z AUTO 22004KT 9SM SCT090 10/08 A3016 RMK AO1 SLP208
METAR CYNL 061000Z AUTO 24004KT 9SM FEW090 10/07 A3017 RMK AO1 SLP212
METAR CYNL 060900Z AUTO 24005KT 9SM CLR 10/07 A3018 RMK AO1 SLP215
METAR CYNL 060800Z AUTO 24004KT 9SM CLR 11/06 A3019 RMK AO1 SLP217
METAR CYNL 060700Z AUTO 25004KT 9SM CLR 11/05 A3020 RMK AO1 SLP220
METAR CYNL 060600Z AUTO 26004KT 230V300 9SM CLR 12/05 A3020 RMK AO1 SLP223
METAR CYNL 060500Z AUTO 00000KT 9SM CLR 12/05 A3021 RMK AO1 SLP223
METAR CYNL 060400Z AUTO 00000KT 9SM CLR 16/07 A3021 RMK AO1 SLP222
METAR CYNL 060300Z AUTO 22003KT 9SM CLR 22/02 A3021 RMK AO1 SLP219
METAR CYNL 060200Z AUTO 28003KT 9SM CLR 23/01 A3022 RMK AO1 SLP221
METAR CYNL 060100Z AUTO 30009KT 9SM CLR 23/M00 A3023 RMK AO1 SLP225
METAR CYNL 060000Z AUTO 29005KT 9SM CLR 23/00 A3024 RMK AO1 SLP232
METAR CYNL 052300Z AUTO 25003KT 9SM CLR 23/00 A3026 RMK AO1 SLP240
METAR CYNL 052200Z AUTO 26008KT 200V310 9SM CLR 22/01 A3027 RMK AO1 SLP247
METAR CYNL 052100Z AUTO 33008KT 300V010 9SM CLR 22/01 A3027 RMK AO1 SLP249
METAR CYNL 052000Z AUTO 31007KT 9SM CLR 21/M03 A3028 RMK AO1 SLP252
METAR CYNL 051900Z AUTO 32008KT 280V000 9SM CLR 21/00 A3028 RMK AO1 SLP253
METAR CYNL 051800Z AUTO 00000KT 9SM CLR 20/M01 A3028 RMK AO1 SLP251
METAR CYNL 051700Z AUTO 29007KT 240V340 9SM CLR 19/00 A3028 RMK AO1 SLP252
METAR CYNL 051600Z AUTO 29007KT 9SM CLR 19/01 A3028 RMK AO1 SLP254
METAR CYNL 051500Z AUTO 30006KT 9SM CLR 18/05 A3028 RMK AO1 SLP253
METAR CYNL 051400Z AUTO 32006KT 9SM CLR 16/06 A3028 RMK AO1 SLP248
METAR CYNL 051300Z AUTO 00000KT 9SM CLR 14/08 A3026 RMK AO1 SLP244
METAR CYNL 051200Z AUTO 25003KT 9SM CLR 10/07 A3024 RMK AO1 SLP244
METAR CYNL 051100Z AUTO 29002KT 9SM CLR 07/06 A3023 RMK AO1 SLP240
METAR CYNL 051000Z AUTO 30003KT 9SM CLR 07/06 A3021 RMK AO1 SLP236
METAR CYNL 050900Z AUTO 31002KT 9SM CLR 07/06 A3020 RMK AO1 SLP233
METAR CYNL 050800Z AUTO 33004KT 9SM CLR 09/06 A3019 RMK AO1 PRESRR SLP226
METAR CYNL 050700Z AUTO 33005KT 9SM FEW064 10/07 A3017 RMK AO1 SLP218
METAR CYNL 050600Z AUTO 32004KT 9SM SCT066 10/07 A3015 RMK AO1 PRESRR SLP214
METAR CYNL 050500Z AUTO 29005KT 9SM CLR 10/07 A3013 RMK AO1 SLP207
METAR CYNL 050400Z AUTO 26004KT 9SM FEW058 12/08 A3011 RMK AO1 SLP199
METAR CYNL 050300Z AUTO 27002KT 9SM CLR 15/07 A3010 RMK AO1 SLP194
METAR CYNL 050200Z AUTO 33003KT 9SM FEW070 16/07 A3008 RMK AO1 SLP188
METAR CYNL 050100Z AUTO 01009KT 9SM OVC062 15/06 A3007 RMK AO1 PRESRR SLP185
METAR CYNL 050000Z AUTO 00014G20KT 9SM SCT039 16/07 A3004 RMK AO1 PRESRR SLP177
METAR CYNL 042300Z AUTO 35013G19KT 9SM FEW041 SCT076 16/06 A3002 RMK AO1 PRESRR SLP167
METAR CYNL 042200Z AUTO 35008G18KT 9SM FEW042 BKN068 15/06 A2999 RMK AO1 PRESRR SLP159
METAR CYNL 042100Z AUTO 34010G16KT 9SM FEW039 16/05 A2997 RMK AO1 SLP150
METAR CYNL 042000Z AUTO 00007KT 9SM FEW036 BKN050 14/05 A2995 RMK AO1 SLP146
METAR CYNL 041900Z AUTO 35010G15KT 9SM SCT031 BKN044 13/06 A2993 RMK AO1 PRESRR SLP140
SPECI CYNL 041803Z AUTO 35010KT 9SM SCT022 BKN036 12/06 A2991 RMK AO1 PRESRR SLP133
SPECI CYNL 041802Z AUTO 35009KT 9SM BKN021 12/06 A2991 RMK AO1 PRESRR SLP133
METAR CYNL 041800Z AUTO 35009KT 9SM SCT021 BKN026 12/06 A2991 RMK AO1 PRESRR SLP133
SPECI CYNL 041757Z AUTO 35009KT 9SM SCT021 BKN026 BKN044 12/06 A2991 RMK AO1 PRESRR SLP133
SPECI CYNL 041753Z AUTO 01008KT 9SM BKN023 BKN044 12/06 A2990 RMK AO1 PRESRR SLP132
SPECI CYNL 041749Z AUTO 34007G16KT 9SM FEW018 BKN026 BKN045 12/07 A2990 RMK AO1 PRESRR SLP131
SPECI CYNL 041748Z AUTO 34007G16KT 9SM SCT021 BKN031 BKN130 12/07 A2990 RMK AO1 PRESRR SLP131
SPECI CYNL 041746Z AUTO 33006G16KT 9SM SCT019 BKN025 BKN200 12/07 A2990 RMK AO1 PRESRR SLP131
SPECI CYNL 041744Z AUTO 33008G16KT 9SM SCT018 BKN024 BKN200 11/06 A2990 RMK AO1 PRESRR SLP131
SPECI CYNL 041727Z AUTO 33007KT 9SM SCT017 BKN027 OVC200 11/06 A2989 RMK AO1 PRESRR SLP129
SPECI CYNL 041725Z AUTO 34011KT 9SM BKN017 BKN028 OVC210 11/06 A2989 RMK AO1 PRESRR SLP128
SPECI CYNL 041709Z AUTO 34008KT 9SM SCT015 OVC026 11/07 A2989 RMK AO1 PRESRR SLP128
SPECI CYNL 041703Z AUTO 34008KT 9SM SCT015 BKN024 OVC030 11/07 A2988 RMK AO1 PRESRR SLP126
METAR CYNL 041700Z AUTO 35007KT 9SM SCT014 OVC026 11/07 A2988 RMK AO1 PRESRR SLP125
SPECI CYNL 041657Z AUTO 35008KT 9SM SCT014 BKN025 OVC032 11/07 A2988 RMK AO1 PRESRR SLP124
SPECI CYNL 041650Z AUTO 35009KT 9SM SCT013 OVC023 10/07 A2988 RMK AO1 PRESRR SLP124
SPECI CYNL 041616Z AUTO 33006KT 9SM FEW008 OVC010 10/07 A2986 RMK AO1 PRESRR SLP117
METAR CYNL 041600Z AUTO 33006KT 9SM BKN008 OVC010 09/07 A2985 RMK AO1 PRESRR SLP116
SPECI CYNL 041519Z AUTO 33007KT 9SM BKN008 BKN014 OVC044 09/07 A2983 RMK AO1 SLP109
SPECI CYNL 041517Z AUTO 33009KT 9SM SCT008 BKN010 BKN014 09/07 A2983 RMK AO1 SLP109
SPECI CYNL 041504Z AUTO 34008KT 9SM BKN009 OVC044 09/07 A2983 RMK AO1 SLP107
METAR CYNL 041500Z AUTO 35008KT 9SM FEW008 BKN010 OVC044 09/07 A2983 RMK AO1 SLP107
SPECI CYNL 041441Z AUTO 35009KT 9SM FEW008 BKN010 BKN017 09/07 A2982 RMK AO1 PRESRR SLP103
SPECI CYNL 041429Z AUTO 34009KT 9SM SCT010 BKN019 09/07 A2982 RMK AO1 PRESRR SLP103
SPECI CYNL 041427Z AUTO 35009KT 9SM SCT009 BKN043 09/07 A2982 RMK AO1 PRESRR SLP103
SPECI CYNL 041423Z AUTO 00006KT 9SM SCT009 BKN020 08/07 A2981 RMK AO1 PRESRR SLP102
SPECI CYNL 041421Z AUTO 35008KT 9SM BKN009 08/07 A2981 RMK AO1 PRESRR SLP102
SPECI CYNL 041410Z AUTO 34008KT 3SM FEW005 SCT008 BKN012 08/08 A2981 RMK AO1 PRESRR SLP100
SPECI CYNL 041408Z AUTO 35007KT 2 1/2SM FEW005 SCT008 BKN012 08/07 A2981 RMK AO1 PRESRR SLP100
SPECI CYNL 041407Z AUTO 34007KT 4SM FEW005 SCT007 BKN012 08/08 A2981 RMK AO1 PRESRR SLP099
METAR CYNL 041400Z AUTO 35009KT 9SM SCT005 BKN007 BKN009 08/07 A2981 RMK AO1 PRESRR SLP099
SPECI CYNL 041353Z AUTO 35006KT 3SM BKN005 BKN009 OVC013 08/08 A2981 RMK AO1 PRESRR SLP099
SPECI CYNL 041352Z AUTO 35007KT 1 1/4SM BKN005 BKN010 OVC013 08/08 A2981 RMK AO1 PRESRR SLP099
SPECI CYNL 041351Z AUTO 34007KT 3/4SM BKN005 BKN010 OVC018 08/08 A2981 RMK AO1 PRESRR SLP099
SPECI CYNL 041348Z AUTO 35006KT 5/8SM BKN005 BKN010 OVC018 08/08 A2980 RMK AO1 PRESRR SLP099
SPECI CYNL 041346Z AUTO 34006KT 3/4SM SCT005 BKN008 BKN010 08/08 A2980 RMK AO1 PRESRR SLP098
SPECI CYNL 041343Z AUTO 35006KT 5/8SM SCT005 BKN008 BKN010 08/08 A2980 RMK AO1 PRESRR SLP098
SPECI CYNL 041342Z AUTO 35008KT 3/4SM SCT005 BKN009 OVC014 08/08 A2980 RMK AO1 PRESRR SLP098
SPECI CYNL 041340Z AUTO 34008KT 1SM SCT005 BKN009 BKN014 08/08 A2980 RMK AO1 PRESRR SLP097
SPECI CYNL 041339Z AUTO 35008KT 3/4SM SCT005 BKN009 BKN014 08/08 A2980 RMK AO1 PRESRR SLP097
SPECI CYNL 041338Z AUTO 35007KT 5/8SM SCT005 BKN009 BKN013 08/08 A2980 RMK AO1 PRESRR SLP097
SPECI CYNL 041331Z AUTO 34008G16KT 3/4SM SCT005 BKN008 OVC019 08/08 A2980 RMK AO1 PRESRR SLP096
SPECI CYNL 041330Z AUTO 34010G16KT 1SM SCT005 BKN008 OVC019 08/08 A2980 RMK AO1 PRESRR SLP096
SPECI CYNL 041328Z AUTO 35009G16KT 1SM FEW005 SCT008 BKN014 08/08 A2979 RMK AO1 PRESRR SLP095
SPECI CYNL 041327Z AUTO 35009G16KT 3/4SM FEW005 SCT008 BKN014 08/08 A2979 RMK AO1 PRESRR SLP095
SPECI CYNL 041325Z AUTO 34009G16KT 1 1/4SM FEW005 BKN008 BKN014 08/08 A2979 RMK AO1 PRESRR SLP095
SPECI CYNL 041324Z AUTO 34007G16KT 1 1/2SM FEW005 BKN008 BKN014 08/08 A2979 RMK AO1 PRESRR SLP094
SPECI CYNL 041322Z AUTO 00011G16KT 1SM VV010 08/08 A2979 RMK AO1 PRESRR SLP094
SPECI CYNL 041321Z AUTO 35011G16KT 3/4SM VV009 08/08 A2979 RMK AO1 PRESRR SLP094
SPECI CYNL 041315Z AUTO 01009KT 5/8SM VV014 08/08 A2979 RMK AO1 PRESRR SLP094
SPECI CYNL 041313Z AUTO 00007KT 1 3/4SM VV014 08/08 A2979 RMK AO1 PRESRR SLP094
SPECI CYNL 041312Z AUTO 00006KT 2SM FEW006 SCT009 BKN014 08/08 A2979 RMK AO1 PRESRR SLP094
SPECI CYNL 041311Z AUTO 00007KT 1 3/4SM FEW006 SCT009 BKN014 08/08 A2979 RMK AO1 PRESRR SLP093
SPECI CYNL 041310Z AUTO 35008KT 1 1/4SM FEW004 SCT008 BKN014 08/08 A2979 RMK AO1 PRESRR SLP093
SPECI CYNL 041309Z AUTO 00009KT 3/4SM FEW004 SCT008 BKN012 08/08 A2979 RMK AO1 PRESRR SLP093
SPECI CYNL 041308Z AUTO 00009KT 5/8SM FEW004 SCT007 BKN014 08/08 A2979 RMK AO1 PRESRR SLP093
SPECI CYNL 041306Z AUTO 00007KT 1 3/4SM SCT007 BKN014 OVC018 08/08 A2979 RMK AO1 PRESRR SLP092
SPECI CYNL 041302Z AUTO 35008KT 9SM FEW007 SCT009 BKN014 08/07 A2978 RMK AO1 PRESRR SLP092
SPECI CYNL 041301Z AUTO 00009KT 9SM FEW007 SCT009 OVC015 08/07 A2978 RMK AO1 PRESRR SLP092
METAR CYNL 041300Z AUTO 00008KT 9SM SCT008 BKN014 OVC018 08/07 A2978 RMK AO1 PRESRR SLP092
SPECI CYNL 041250Z AUTO 00007KT 9SM FEW004 SCT008 BKN014 08/07 A2978 RMK AO1 SLP090
SPECI CYNL 041235Z AUTO 35011KT 6SM SCT004 BKN009 BKN018 08/07 A2977 RMK AO1 SLP088
SPECI CYNL 041234Z AUTO 35010KT 2SM FEW004 SCT007 BKN009 08/08 A2977 RMK AO1 SLP088
SPECI CYNL 041233Z AUTO 35008KT 3/4SM SCT004 BKN009 08/08 A2977 RMK AO1 SLP088
SPECI CYNL 041231Z AUTO 35006KT 1/2SM SCT004 BKN007 08/08 A2977 RMK AO1 SLP087
SPECI CYNL 041230Z AUTO 35007KT 1SM FEW004 SCT005 BKN008 08/08 A2977 RMK AO1 SLP087
SPECI CYNL 041227Z AUTO 00008KT 1 1/2SM FEW004 SCT005 BKN007 08/08 A2977 RMK AO1 SLP086
SPECI CYNL 041223Z AUTO 00009G16KT 2 1/2SM FEW004 BKN006 08/07 A2976 RMK AO1 SLP085
SPECI CYNL 041220Z AUTO 35011G16KT 9SM FEW004 SCT006 BKN009 08/07 A2976 RMK AO1 SLP084
SPECI CYNL 041219Z AUTO 35010G16KT 9SM SCT006 BKN011 08/07 A2976 RMK AO1 SLP084
METAR CYNL 041200Z AUTO 34008KT 9SM SCT004 OVC006 08/08 A2976 RMK AO1 SLP082
SPECI CYNL 041156Z AUTO 34006KT 4SM BKN005 OVC006 08/08 A2975 RMK AO1 SLP081
SPECI CYNL 041152Z AUTO 34007KT 2 1/2SM BKN005 OVC010 08/08 A2975 RMK AO1 SLP081
SPECI CYNL 041150Z AUTO 35008KT 4SM BKN005 OVC010 08/08 A2975 RMK AO1 SLP081
SPECI CYNL 041149Z AUTO 34008KT 2 1/2SM BKN005 OVC010 08/08 A2975 RMK AO1 SLP081
SPECI CYNL 041147Z AUTO 34007KT 1 1/2SM BKN005 OVC009 08/08 A2975 RMK AO1 SLP081
SPECI CYNL 041146Z AUTO 34007KT 2SM BKN005 OVC009 08/08 A2975 RMK AO1 SLP081
SPECI CYNL 041115Z AUTO 34007KT 4SM OVC005 08/08 A2974 RMK AO1 SLP077
SPECI CYNL 041111Z AUTO 32008KT 2 1/2SM OVC005 08/08 A2974 RMK AO1 SLP076
METAR CYNL 041100Z AUTO 33006KT 9SM BKN006 OVC008 08/08 A2974 RMK AO1 SLP076
SPECI CYNL 041020Z AUTO 33007KT 3SM BKN006 OVC011 08/08 A2973 RMK AO1 SLP073
SPECI CYNL 041016Z AUTO 34009KT 2 1/2SM FEW004 BKN006 OVC011 09/08 A2973 RMK AO1 SLP072
SPECI CYNL 041012Z AUTO 33006KT 3SM SCT005 BKN006 OVC009 09/08 A2973 RMK AO1 SLP072
SPECI CYNL 041010Z AUTO 32005KT 2SM SCT005 BKN006 OVC009 09/08 A2973 RMK AO1 SLP072
SPECI CYNL 041005Z AUTO 34004KT 1 3/4SM BKN005 OVC007 09/08 A2973 RMK AO1 SLP072
SPECI CYNL 041003Z AUTO 34004KT 2 1/2SM BKN005 OVC008 09/08 A2973 RMK AO1 SLP072
SPECI CYNL 041002Z AUTO 34004KT 1 3/4SM BKN005 OVC008 09/08 A2973 RMK AO1 SLP071
METAR CYNL 041000Z AUTO 33005KT 1SM BKN005 OVC008 09/08 A2973 RMK AO1 SLP072
SPECI CYNL 040955Z AUTO 32004KT 1 1/4SM BKN005 BKN006 OVC009 09/08 A2973 RMK AO1 SLP073
SPECI CYNL 040954Z AUTO 32005KT 1 3/4SM BKN005 OVC008 09/08 A2973 RMK AO1 SLP073
SPECI CYNL 040947Z AUTO 31006KT 4SM BKN005 OVC008 09/08 A2972 RMK AO1 SLP072
SPECI CYNL 040944Z AUTO 30005KT 3SM BKN004 OVC007 09/08 A2972 RMK AO1 SLP072
SPECI CYNL 040936Z AUTO 29006KT 2 1/2SM OVC004 09/08 A2972 RMK AO1 SLP071
SPECI CYNL 040928Z AUTO 29006KT 3SM OVC004 08/08 A2972 RMK AO1 SLP071
SPECI CYNL 040925Z AUTO 30006KT 2SM OVC004 08/08 A2972 RMK AO1 SLP071
SPECI CYNL 040923Z AUTO 29006KT 1 1/2SM OVC003 08/08 A2972 RMK AO1 SLP071
METAR CYNL 040900Z AUTO 28005KT 1SM BKN004 BKN007 OVC013 08/08 A2971 RMK AO1 SLP070
SPECI CYNL 040859Z AUTO 28005KT 1SM BKN004 BKN007 OVC013 08/08 A2971 RMK AO1 SLP069
SPECI CYNL 040857Z AUTO 28006KT 3/4SM BKN004 BKN009 OVC014 08/08 A2971 RMK AO1 SLP067
SPECI CYNL 040854Z AUTO 28004KT 3/4SM BKN005 BKN009 OVC014 08/08 A2972 RMK AO1 SLP068
SPECI CYNL 040843Z AUTO 28005KT 1 1/4SM SCT005 BKN007 BKN018 08/08 A2972 RMK AO1 SLP068
SPECI CYNL 040842Z AUTO 28006KT 1 1/4SM SCT005 BKN013 OVC022 08/08 A2972 RMK AO1 SLP068
SPECI CYNL 040838Z AUTO 28006KT 1 1/2SM SCT005 BKN013 OVC023 08/08 A2972 RMK AO1 SLP068
SPECI CYNL 040835Z AUTO 28006KT 1SM FEW005 BKN013 OVC022 08/08 A2972 RMK AO1 SLP067
SPECI CYNL 040834Z AUTO 28007KT 1SM VV013 08/08 A2971 RMK AO1 SLP067
SPECI CYNL 040827Z AUTO 28005KT 1 1/4SM FEW006 SCT015 BKN022 08/08 A2971 RMK AO1 SLP067
SPECI CYNL 040826Z AUTO 28005KT 1 1/2SM FEW006 SCT015 BKN022 08/08 A2971 RMK AO1 SLP067
SPECI CYNL 040822Z AUTO 28005KT 1 3/4SM VV021 08/08 A2971 RMK AO1 SLP067
SPECI CYNL 040815Z AUTO 28008KT 2SM VV024 08/07 A2972 RMK AO1 SLP068
SPECI CYNL 040814Z AUTO 28008KT 2SM VV025 08/07 A2972 RMK AO1 SLP068
SPECI CYNL 040810Z AUTO 28007KT 1 3/4SM VV026 09/07 A2972 RMK AO1 SLP068
SPECI CYNL 040808Z AUTO 28006KT 2 1/2SM VV027 09/07 A2972 RMK AO1 SLP068
SPECI CYNL 040806Z AUTO 28007KT 2 1/2SM FEW012 SCT016 BKN019 09/07 A2972 RMK AO1 SLP068
METAR CYNL 040800Z AUTO 27007KT 9SM FEW012 BKN017 OVC025 09/07 A2972 RMK AO1 SLP067
SPECI CYNL 040757Z AUTO 27007KT 9SM FEW012 BKN019 OVC026 09/07 A2972 RMK AO1 SLP068
SPECI CYNL 040753Z AUTO 28007KT 9SM SCT019 BKN025 09/06 A2972 RMK AO1 SLP068
SPECI CYNL 040752Z AUTO 28008KT 9SM BKN020 BKN026 09/06 A2972 RMK AO1 SLP068
SPECI CYNL 040751Z AUTO 28007KT 9SM SCT021 BKN027 09/06 A2972 RMK AO1 SLP068
SPECI CYNL 040749Z AUTO 28006KT 9SM BKN022 09/06 A2972 RMK AO1 SLP068
SPECI CYNL 040748Z AUTO 28006KT 9SM FEW019 BKN025 09/06 A2972 RMK AO1 SLP068
SPECI CYNL 040746Z AUTO 27005KT 9SM BKN024 09/06 A2972 RMK AO1 SLP068
SPECI CYNL 040740Z AUTO 27005KT 9SM BKN026 09/06 A2972 RMK AO1 SLP068
METAR CYNL 040700Z AUTO 26005KT 9SM FEW026 09/06 A2972 RMK AO1 SLP070
METAR CYNL 040600Z AUTO 26005KT 9SM FEW049 09/06 A2973 RMK AO1 SLP074
METAR CYNL 040500Z AUTO 29005KT 9SM CLR 09/05 A2973 RMK AO1 SLP075
METAR CYNL 040400Z AUTO 32009KT 9SM CLR 10/04 A2973 RMK AO1 SLP076
METAR CYNL 040300Z AUTO 29005KT 9SM SCT050 11/04 A2974 RMK AO1 SLP075
METAR CYNL 040200Z AUTO 29003KT 9SM FEW060 SCT084 12/05 A2973 RMK AO1 SLP074
METAR CYNL 040100Z AUTO 33005KT 9SM FEW054 BKN070 12/04 A2973 RMK AO1 SLP073
METAR CYNL 040000Z AUTO 29004KT 9SM FEW066 SCT076 12/05 A2973 RMK AO1 SLP073
SPECI CYNL 032317Z AUTO 29007G18KT 9SM FEW019 SCT035 BKN074 10/05 A2973 RMK AO1 SLP076
SPECI CYNL 032315Z AUTO 28010G18KT 5SM VV024 10/05 A2973 RMK AO1 SLP076
SPECI CYNL 032312Z AUTO 28009G18KT 3SM VV029 11/06 A2973 RMK AO1 SLP077
METAR CYNL 032300Z AUTO 30007KT 9SM FEW066 12/05 A2973 RMK AO1 SLP074
SPECI CYNL 032210Z AUTO 33005G16KT 9SM SCT028 BKN040 BKN060 09/06 A2974 RMK AO1 SLP080
SPECI CYNL 032208Z AUTO 31004G17KT 7SM VV028 09/06 A2974 RMK AO1 SLP080
SPECI CYNL 032204Z AUTO 31008G21KT 4SM SCT029 BKN040 OVC058 09/05 A2974 RMK AO1 SLP081
SPECI CYNL 032202Z AUTO 31009G21KT 2 1/2SM SCT030 BKN040 OVC058 09/05 A2974 RMK AO1 WSHFT (21)49 SLP081
METAR CYNL 032200Z AUTO 31012G23KT 9SM FEW030 BKN040 BKN058 10/04 A2974 RMK AO1 WSHFT (21)49 SLP081
SPECI CYNL 032149Z AUTO 33014G24KT 9SM SCT041 BKN058 12/04 A2973 RMK AO1 WSHFT (21)49 SLP078
METAR CYNL 032100Z AUTO 27010G21KT 9SM FEW040 SCT210 12/04 A2973 RMK AO1 SLP074
METAR CYNL 032000Z AUTO 29012G18KT 9SM FEW052 SCT180 12/04 A2973 RMK AO1 SLP078
METAR CYNL 031900Z AUTO 30010G20KT 9SM SCT017 09/06 A2974 RMK AO1 SLP083
SPECI CYNL 031827Z AUTO 32010G18KT 9SM SCT015 BKN100 08/06 A2974 RMK AO1 SLP084
SPECI CYNL 031826Z AUTO 32009G18KT 9SM SCT015 BKN027 08/06 A2974 RMK AO1 SLP084
SPECI CYNL 031820Z AUTO 33010G18KT 5SM SCT015 BKN027 08/06 A2974 RMK AO1 SLP085
METAR CYNL 031800Z AUTO 33010G19KT 9SM FEW011 SCT018 BKN030 08/06 A2974 RMK AO1 SLP083
SPECI CYNL 031753Z AUTO 32010G21KT 9SM FEW011 SCT018 BKN030 08/05 A2974 RMK AO1 SLP084
SPECI CYNL 031745Z AUTO 32009G21KT 9SM VV017 07/05 A2974 RMK AO1 SLP085
SPECI CYNL 031743Z AUTO 32013G21KT 8SM VV014 07/04 A2974 RMK AO1 SLP085
SPECI CYNL 031736Z AUTO 31013G23KT 5SM VV024 07/05 A2974 RMK AO1 SLP084
SPECI CYNL 031719Z AUTO 32008G19KT 3SM SCT018 BKN028 08/06 A2973 RMK AO1 SLP080
SPECI CYNL 031715Z AUTO 32011G22KT 2 1/2SM VV026 08/05 A2973 RMK AO1 SLP080
SPECI CYNL 031701Z AUTO 30011G17KT 9SM FEW017 BKN027 09/06 A2972 RMK AO1 SLP077
METAR CYNL 031700Z AUTO 30010G16KT 9SM FEW017 SCT028 BKN130 09/06 A2972 RMK AO1 SLP077
SPECI CYNL 031639Z AUTO 31009G19KT 9SM SCT017 BKN025 09/06 A2972 RMK AO1 SLP076
SPECI CYNL 031625Z AUTO 31010G18KT 9SM SCT018 BKN023 08/06 A2972 RMK AO1 SLP076
SPECI CYNL 031622Z AUTO 30010G18KT 9SM SCT018 BKN150 08/06 A2972 RMK AO1 SLP076
SPECI CYNL 031621Z AUTO 31008G18KT 9SM SCT018 BKN023 08/06 A2972 RMK AO1 SLP076
METAR CYNL 031600Z AUTO 31009KT 9SM SCT018 08/06 A2972 RMK AO1 SLP074
SPECI CYNL 031542Z AUTO 32011G22KT 9SM FEW013 SCT018 08/06 A2971 RMK AO1 SLP074
SPECI CYNL 031540Z AUTO 31012G22KT 9SM FEW013 SCT018 BKN027 08/05 A2971 RMK AO1 SLP074
SPECI CYNL 031519Z AUTO 29010G16KT 3SM SCT012 BKN023 OVC035 08/06 A2971 RMK AO1 SLP072
SPECI CYNL 031518Z AUTO 30009G16KT 2 1/2SM BKN013 BKN024 OVC240 08/06 A2971 RMK AO1 SLP071
SPECI CYNL 031517Z AUTO 30009G16KT 2 1/2SM SCT012 BKN016 BKN024 08/06 A2971 RMK AO1 SLP071
METAR CYNL 031500Z AUTO 31008G19KT 9SM FEW014 BKN023 08/07 A2970 RMK AO1 SLP070
SPECI CYNL 031458Z AUTO 30010G19KT 6SM VV026 08/06 A2970 RMK AO1 SLP070
SPECI CYNL 031455Z AUTO 30013G19KT 6SM FEW012 SCT022 BKN033 08/06 A2970 RMK AO1 PRESRR SLP070
SPECI CYNL 031454Z AUTO 30010G19KT 7SM FEW010 BKN022 08/06 A2970 RMK AO1 PRESRR SLP070
SPECI CYNL 031449Z AUTO 31009G17KT 9SM FEW010 SCT022 08/06 A2970 RMK AO1 PRESRR SLP070
SPECI CYNL 031408Z AUTO 30012G19KT 6SM FEW009 SCT012 BKN017 07/06 A2969 RMK AO1 PRESRR SLP068
SPECI CYNL 031406Z AUTO 30011G18KT 7SM FEW009 BKN012 BKN018 07/06 A2970 RMK AO1 PRESRR SLP068
METAR CYNL 031400Z AUTO 31009G16KT 4SM SCT010 BKN013 OVC022 07/06 A2969 RMK AO1 PRESRR SLP067
SPECI CYNL 031358Z AUTO 30008G16KT 4SM SCT010 BKN017 OVC023 07/06 A2969 RMK AO1 PRESRR SLP066
SPECI CYNL 031356Z AUTO 29010G16KT 3SM BKN012 OVC023 07/06 A2969 RMK AO1 SLP065
SPECI CYNL 031353Z AUTO 30010KT 4SM FEW009 SCT012 BKN017 07/06 A2969 RMK AO1 SLP065
SPECI CYNL 031349Z AUTO 30008KT 3SM SCT010 OVC024 07/06 A2969 RMK AO1 SLP065
SPECI CYNL 031348Z AUTO 30008KT 2 1/2SM SCT010 OVC025 07/06 A2969 RMK AO1 SLP065
SPECI CYNL 031347Z AUTO 30007KT 2SM FEW008 SCT012 OVC024 07/06 A2969 RMK AO1 SLP065
SPECI CYNL 031345Z AUTO 31008KT 1 1/2SM SCT010 OVC024 07/06 A2969 RMK AO1 SLP064
SPECI CYNL 031343Z AUTO 31007G15KT 2 1/2SM FEW010 SCT014 OVC024 07/06 A2969 RMK AO1 SLP064
SPECI CYNL 031333Z AUTO 32008G16KT 6SM FEW013 OVC024 08/06 A2969 RMK AO1 SLP063
SPECI CYNL 031328Z AUTO 32009G18KT 7SM VV026 08/06 A2968 RMK AO1 SLP062
SPECI CYNL 031307Z AUTO 30011G20KT 8SM SCT013 BKN019 BKN025 07/06 A2968 RMK AO1 SLP060
SPECI CYNL 031302Z AUTO 30013G20KT 6SM BKN014 BKN023 07/06 A2967 RMK AO1 SLP060
METAR CYNL 031300Z AUTO 30008G20KT 6SM FEW012 BKN016 BKN027 07/06 A2967 RMK AO1 SLP059
SPECI CYNL 031247Z AUTO 30010G17KT 9SM FEW011 SCT018 BKN022 07/06 A2967 RMK AO1 PRESRR SLP057
SPECI CYNL 031246Z AUTO 30010G17KT 8SM FEW010 SCT013 BKN025 07/06 A2967 RMK AO1 PRESRR SLP058
SPECI CYNL 031238Z AUTO 31010G17KT 9SM SCT010 BKN018 OVC026 07/06 A2967 RMK AO1 PRESRR SLP057
SPECI CYNL 031220Z AUTO 30010G19KT 6SM SCT009 BKN012 BKN015 07/06 A2966 RMK AO1 PRESRR SLP056
SPECI CYNL 031216Z AUTO 31010G17KT 8SM BKN010 BKN015 OVC020 07/06 A2966 RMK AO1 PRESRR SLP056
SPECI CYNL 031215Z AUTO 31011G19KT 6SM SCT010 BKN015 OVC020 07/06 A2966 RMK AO1 PRESRR SLP056
SPECI CYNL 031212Z AUTO 32007G19KT 3SM BKN011 BKN015 OVC020 07/06 A2966 RMK AO1 PRESRR SLP056
SPECI CYNL 031201Z AUTO 30009G19KT 6SM SCT011 BKN015 OVC020 07/06 A2966 RMK AO1 PRESRR SLP056
METAR CYNL 031200Z AUTO 30008G19KT 6SM SCT011 BKN014 OVC020 07/06 A2966 RMK AO1 PRESRR SLP056
SPECI CYNL 031132Z AUTO 31011G20KT 8SM SCT009 BKN012 OVC019 07/06 A2965 RMK AO1 SLP051
SPECI CYNL 031122Z AUTO 31010G18KT 9SM BKN010 OVC019 07/06 A2965 RMK AO1 SLP050
SPECI CYNL 031116Z AUTO 31009G18KT 9SM BKN009 BKN012 OVC014 07/06 A2964 RMK AO1 SLP049
METAR CYNL 031100Z AUTO 31012G22KT 9SM SCT009 BKN012 BKN014 06/05 A2964 RMK AO1 SLP047
SPECI CYNL 031056Z AUTO 29010G22KT 9SM SCT009 BKN012 OVC021 06/05 A2964 RMK AO1 SLP047
SPECI CYNL 031050Z AUTO 30012G22KT 9SM BKN009 BKN014 OVC022 06/05 A2963 RMK AO1 SLP046
SPECI CYNL 031049Z AUTO 29010G15KT 9SM SCT009 BKN011 BKN014 06/05 A2963 RMK AO1 SLP046
SPECI CYNL 031035Z AUTO 29010G17KT 9SM BKN009 BKN013 OVC021 06/05 A2963 RMK AO1 SLP044
SPECI CYNL 031034Z AUTO 29009KT 9SM SCT009 BKN010 BKN013 06/05 A2963 RMK AO1 SLP044
SPECI CYNL 031032Z AUTO 29011KT 9SM BKN009 BKN015 OVC021 06/05 A2963 RMK AO1 SLP044
SPECI CYNL 031031Z AUTO 30009G16KT 9SM SCT009 BKN010 BKN014 06/05 A2963 RMK AO1 SLP045
SPECI CYNL 031029Z AUTO 30009G16KT 9SM BKN009 BKN014 OVC022 06/05 A2963 RMK AO1 SLP044
SPECI CYNL 031026Z AUTO 30008G16KT 6SM FEW009 SCT011 BKN014 06/05 A2963 RMK AO1 SLP044
SPECI CYNL 031021Z AUTO 30010G16KT 9SM SCT010 BKN016 BKN026 06/05 A2963 RMK AO1 SLP044
SPECI CYNL 031020Z AUTO 31009KT 9SM SCT010 BKN014 BKN026 06/05 A2963 RMK AO1 SLP044
SPECI CYNL 031004Z AUTO 31007KT 9SM FEW009 SCT015 BKN024 06/05 A2963 RMK AO1 SLP044
METAR CYNL 031000Z AUTO 31006KT 9SM FEW010 SCT016 BKN025 06/05 A2963 RMK AO1 SLP044
SPECI CYNL 030958Z AUTO 31007KT 9SM FEW010 SCT015 BKN025 06/05 A2963 RMK AO1 SLP043
SPECI CYNL 030947Z AUTO 32006G15KT 8SM SCT009 BKN016 OVC023 06/05 A2963 RMK AO1 SLP044
SPECI CYNL 030944Z AUTO 31008G16KT 7SM SCT009 BKN012 BKN017 06/05 A2963 RMK AO1 SLP044
SPECI CYNL 030942Z AUTO 32007G16KT 6SM BKN009 OVC017 06/05 A2963 RMK AO1 SLP044
SPECI CYNL 030937Z AUTO 32007G16KT 7SM SCT009 BKN012 BKN017 06/05 A2963 RMK AO1 SLP044
SPECI CYNL 030936Z AUTO 32009G16KT 7SM BKN010 BKN017 OVC023 06/05 A2963 RMK AO1 SLP043
SPECI CYNL 030935Z AUTO 32012KT 8SM BKN009 BKN017 OVC023 06/05 A2963 RMK AO1 SLP043
SPECI CYNL 030934Z AUTO 32013KT 8SM SCT009 BKN011 BKN017 06/05 A2962 RMK AO1 SLP043
SPECI CYNL 030933Z AUTO 32012KT 9SM BKN009 BKN017 OVC024 06/05 A2962 RMK AO1 SLP043
SPECI CYNL 030932Z AUTO 32011G16KT 9SM SCT009 BKN012 BKN017 06/05 A2962 RMK AO1 SLP042
SPECI CYNL 030921Z AUTO 31011G16KT 6SM BKN009 BKN012 OVC017 06/05 A2962 RMK AO1 SLP041
SPECI CYNL 030916Z AUTO 31007G16KT 8SM SCT008 BKN010 BKN016 06/05 A2962 RMK AO1 SLP041
SPECI CYNL 030915Z AUTO 31006G16KT 8SM BKN009 BKN016 OVC021 06/05 A2962 RMK AO1 SLP041
SPECI CYNL 030906Z AUTO 30006KT 8SM SCT008 BKN013 BKN016 06/05 A2962 RMK AO1 SLP041
METAR CYNL 030900Z AUTO 29008KT 8SM FEW009 SCT013 BKN016 05/04 A2962 RMK AO1 SLP041
SPECI CYNL 030859Z AUTO 30007KT 8SM FEW009 SCT013 BKN016 05/04 A2962 RMK AO1 SLP042
SPECI CYNL 030813Z AUTO 32010G19KT 6SM SCT011 BKN015 OVC019 05/04 A2962 RMK AO1 SLP042
SPECI CYNL 030809Z AUTO 32011G18KT 7SM BKN012 OVC019 05/04 A2962 RMK AO1 SLP042
SPECI CYNL 030807Z AUTO 33011G18KT 7SM SCT012 BKN015 OVC019 05/04 A2962 RMK AO1 SLP041
METAR CYNL 030800Z AUTO 32010G19KT 8SM SCT011 BKN014 OVC020 06/04 A2961 RMK AO1 SLP041
SPECI CYNL 030757Z AUTO 32012G19KT 7SM SCT011 BKN014 OVC020 06/04 A2961 RMK AO1 SLP042
SPECI CYNL 030756Z AUTO 32011G19KT 7SM SCT011 BKN015 OVC019 06/04 A2961 RMK AO1 SLP042
SPECI CYNL 030751Z AUTO 32009G19KT 7SM SCT011 BKN014 BKN017 06/04 A2961 RMK AO1 SLP042
SPECI CYNL 030748Z AUTO 32009G19KT 8SM FEW011 BKN015 OVC021 06/04 A2961 RMK AO1 SLP041
SPECI CYNL 030747Z AUTO 32009G19KT 8SM BKN013 BKN017 OVC021 06/04 A2961 RMK AO1 SLP041
METAR CYNL 030700Z AUTO 32008KT 9SM OVC020 06/04 A2961 RMK AO1 SLP039
SPECI CYNL 030606Z AUTO 32010G17KT 9SM SCT011 OVC017 06/05 A2960 RMK AO1 PRESRR SLP036
SPECI CYNL 030602Z AUTO 32009G15KT 9SM SCT010 BKN012 OVC017 06/05 A2960 RMK AO1 PRESRR SLP036
METAR CYNL 030600Z AUTO 32008G15KT 9SM SCT010 OVC017 06/05 A2960 RMK AO1 PRESRR SLP036
SPECI CYNL 030540Z AUTO 31009G16KT 9SM SCT010 OVC017 06/05 A2959 RMK AO1 PRESRR SLP033
METAR CYNL 030500Z AUTO 32007G15KT 9SM BKN011 OVC040 06/05 A2958 RMK AO1 PRESRR SLP027
SPECI CYNL 030431Z AUTO 32008KT 9SM SCT010 BKN016 OVC035 06/05 A2957 RMK AO1 PRESRR SLP024
SPECI CYNL 030419Z AUTO 32008G16KT 9SM FEW012 BKN025 BKN034 07/05 A2956 RMK AO1 PRESRR SLP023
METAR CYNL 030400Z AUTO 32010G19KT 9SM FEW012 SCT018 BKN046 07/05 A2955 RMK AO1 PRESRR SLP018
METAR CYNL 030300Z AUTO 31008KT 9SM FEW030 07/05 A2952 RMK AO1 PRESRR SLP006
SPECI CYNL 030239Z AUTO 33009G17KT 3SM FEW016 SCT029 07/05 A2951 RMK AO1 PRESRR SLP003
SPECI CYNL 030238Z AUTO 33009G17KT 2 1/2SM FEW016 07/05 A2951 RMK AO1 PRESRR SLP003
METAR CYNL 030200Z AUTO 31011G17KT 9SM CLR 08/05 A2949 RMK AO1 PRESRR SLP996
METAR CYNL 030100Z AUTO 30008KT 9SM FEW019 08/05 A2946 RMK AO1 PRESRR SLP988
SPECI CYNL 030022Z AUTO 30006G15KT 9SM FEW008 SCT023 BKN033 07/06 A2945 RMK AO1 SLP983
SPECI CYNL 030021Z AUTO 30006G15KT 9SM FEW008 BKN023 07/06 A2944 RMK AO1 SLP982
SPECI CYNL 030019Z AUTO 31005G15KT 3SM VV026 07/06 A2944 RMK AO1 SLP982
SPECI CYNL 030018Z AUTO 31007G15KT 2 1/2SM VV028 07/06 A2944 RMK AO1 SLP982
SPECI CYNL 030015Z AUTO 31009KT 2SM FEW015 BKN022 08/06 A2944 RMK AO1 SLP982
SPECI CYNL 030014Z AUTO 31009KT 2 1/2SM FEW015 SCT022 BKN031 08/06 A2944 RMK AO1 SLP981
SPECI CYNL 030010Z AUTO 31005G19KT 9SM SCT015 BKN030 08/06 A2944 RMK AO1 SLP980
SPECI CYNL 030008Z AUTO 32008G19KT 9SM SCT015 BKN029 08/06 A2944 RMK AO1 SLP979
SPECI CYNL 030004Z AUTO 31010G23KT 9SM FEW007 BKN021 BKN030 08/06 A2943 RMK AO1 SLP979
SPECI CYNL 030001Z AUTO 31011G23KT 3SM VV022 08/06 A2943 RMK AO1 SLP978
METAR CYNL 030000Z AUTO 31014G23KT 2 1/2SM VV022 08/06 A2943 RMK AO1 SLP978
SPECI CYNL 022356Z AUTO 31011G23KT 5SM VV022 08/06 A2943 RMK AO1 SLP977
SPECI CYNL 022355Z AUTO 31014G23KT 4SM FEW016 SCT021 BKN030 08/06 A2943 RMK AO1 SLP977
SPECI CYNL 022354Z AUTO 30012G23KT 5SM FEW016 SCT021 BKN029 08/06 A2943 RMK AO1 SLP976
SPECI CYNL 022341Z AUTO 28006KT 3SM FEW022 SCT029 08/06 A2942 RMK AO1 SLP974
SPECI CYNL 022340Z AUTO 28007KT 2SM FEW021 SCT029 08/06 A2942 RMK AO1 SLP974
SPECI CYNL 022337Z AUTO 28006KT 2 1/2SM FEW018 SCT028 08/06 A2942 RMK AO1 SLP974
SPECI CYNL 022311Z AUTO 26010G17KT 5SM FEW009 SCT024 BKN030 08/05 A2942 RMK AO1 SLP974
SPECI CYNL 022310Z AUTO 27010G17KT 2 1/2SM FEW009 SCT024 BKN030 08/06 A2942 RMK AO1 SLP974
SPECI CYNL 022309Z AUTO 27011G17KT 2 1/2SM FEW019 SCT024 BKN031 08/06 A2942 RMK AO1 SLP973
METAR CYNL 022300Z AUTO 26008KT 9SM FEW015 08/05 A2942 RMK AO1 SLP972
METAR CYNL 022200Z AUTO 24011G17KT 9SM FEW010 09/05 A2941 RMK AO1 SLP970
SPECI CYNL 022145Z AUTO 25010G16KT 9SM FEW010 SCT018 BKN030 07/06 A2942 RMK AO1 SLP972
SPECI CYNL 022139Z AUTO 25009G15KT 4SM FEW009 SCT013 BKN017 07/06 A2942 RMK AO1 SLP973
SPECI CYNL 022135Z AUTO 25007KT 7SM SCT012 BKN023 OVC029 07/06 A2941 RMK AO1 SLP972
SPECI CYNL 022134Z AUTO 25008KT 6SM FEW012 SCT017 OVC027 07/06 A2941 RMK AO1 SLP972
SPECI CYNL 022133Z AUTO 24008KT 5SM FEW013 SCT017 BKN023 07/06 A2941 RMK AO1 SLP972
SPECI CYNL 022129Z AUTO 26007KT 4SM FEW008 SCT018 BKN028 07/05 A2941 RMK AO1 SLP972
SPECI CYNL 022123Z AUTO 26005KT 9SM FEW011 SCT017 BKN028 07/05 A2941 RMK AO1 SLP972
SPECI CYNL 022121Z AUTO 27007KT 5SM VV024 07/05 A2941 RMK AO1 SLP972
SPECI CYNL 022119Z AUTO 26008G15KT 2SM SCT010 BKN022 BKN028 07/05 A2941 RMK AO1 SLP973
SPECI CYNL 022117Z AUTO 26009G24KT 1 1/2SM SCT010 BKN022 BKN028 07/05 A2942 RMK AO1 SLP973
SPECI CYNL 022116Z AUTO 26007G24KT 1 1/4SM SCT010 BKN027 07/05 A2942 RMK AO1 SLP973
SPECI CYNL 022115Z AUTO 27007G24KT 2SM SCT009 BKN016 BKN027 07/05 A2942 RMK AO1 SLP973
SPECI CYNL 022112Z AUTO 27009G25KT 7SM FEW009 SCT012 BKN016 07/04 A2942 RMK AO1 SLP973
SPECI CYNL 022110Z AUTO 27012G25KT 3SM VV027 07/04 A2942 RMK AO1 SLP973
SPECI CYNL 022108Z AUTO 27015G25KT 3SM FEW009 SCT012 BKN016 07/05 A2942 RMK AO1 SLP973
SPECI CYNL 022107Z AUTO 27017G25KT 3SM BKN010 BKN016 OVC025 07/04 A2941 RMK AO1 SLP973
SPECI CYNL 022105Z AUTO 27015G25KT 2 1/2SM BKN010 BKN016 OVC024 07/05 A2941 RMK AO1 SLP972
SPECI CYNL 022102Z AUTO 26012G17KT 1 3/4SM FEW007 BKN010 OVC016 07/06 A2941 RMK AO1 SLP971
SPECI CYNL 022101Z AUTO 26010G19KT 2 1/2SM FEW007 BKN010 OVC016 07/06 A2941 RMK AO1 SLP970
METAR CYNL 022100Z AUTO 26009G19KT 3SM FEW007 BKN010 OVC016 07/06 A2941 RMK AO1 SLP970
SPECI CYNL 022053Z AUTO 24011G19KT 3SM SCT007 BKN010 BKN016 08/06 A2941 RMK AO1 SLP967
SPECI CYNL 022052Z AUTO 24012G19KT 2SM SCT007 BKN010 BKN016 08/06 A2941 RMK AO1 SLP967
SPECI CYNL 022051Z AUTO 24011G19KT 1 3/4SM SCT007 BKN010 BKN016 08/06 A2941 RMK AO1 SLP967
SPECI CYNL 022050Z AUTO 24010G17KT 2SM SCT007 BKN010 BKN016 08/06 A2941 RMK AO1 SLP967
SPECI CYNL 022048Z AUTO 24007G17KT 5SM SCT007 BKN010 BKN013 08/07 A2941 RMK AO1 SLP967
SPECI CYNL 022047Z AUTO 24007G17KT 3SM SCT007 BKN009 BKN012 08/07 A2941 RMK AO1 SLP967
SPECI CYNL 022046Z AUTO 25007G20KT 2 1/2SM SCT007 BKN009 BKN012 08/06 A2941 RMK AO1 SLP967
SPECI CYNL 022042Z AUTO 23010G20KT 9SM SCT007 BKN010 OVC016 08/07 A2941 RMK AO1 SLP967
SPECI CYNL 022033Z AUTO 23009G18KT 3SM SCT007 BKN008 OVC011 07/06 A2940 RMK AO1 SLP967
SPECI CYNL 022032Z AUTO 23010G18KT 2 1/2SM SCT007 BKN008 OVC011 07/06 A2941 RMK AO1 SLP967
SPECI CYNL 022031Z AUTO 23011G18KT 1 3/4SM SCT007 BKN008 BKN011 07/06 A2941 RMK AO1 SLP968
SPECI CYNL 022029Z AUTO 23012G19KT 2 1/2SM BKN008 BKN012 OVC019 07/06 A2941 RMK AO1 SLP968
SPECI CYNL 022028Z AUTO 23011G19KT 3SM SCT007 BKN009 BKN013 07/06 A2941 RMK AO1 SLP968
SPECI CYNL 022027Z AUTO 22011G20KT 2 1/2SM SCT007 BKN009 BKN013 07/06 A2941 RMK AO1 SLP968
SPECI CYNL 022023Z AUTO 22012G20KT 1 3/4SM FEW006 BKN009 OVC019 07/06 A2941 RMK AO1 SLP968
SPECI CYNL 022019Z AUTO 23012G20KT 2SM FEW007 BKN011 OVC018 07/06 A2941 RMK AO1 SLP968
SPECI CYNL 022015Z AUTO 23012G18KT 1 3/4SM FEW007 BKN011 OVC019 07/06 A2941 RMK AO1 SLP968
SPECI CYNL 022012Z AUTO 22008G18KT 2SM SCT007 BKN011 OVC019 07/06 A2941 RMK AO1 SLP968
SPECI CYNL 022010Z AUTO 22009G18KT 1 3/4SM FEW008 BKN011 OVC019 07/05 A2941 RMK AO1 SLP968
SPECI CYNL 022001Z AUTO 23013G19KT 1 3/4SM FEW008 SCT011 BKN019 06/05 A2941 RMK AO1 SLP970
METAR CYNL 022000Z AUTO 23012G19KT 1 3/4SM SCT010 BKN019 OVC026 06/05 A2941 RMK AO1 SLP970
SPECI CYNL 021955Z AUTO 22011G18KT 2 1/2SM SCT010 BKN020 OVC180 06/05 A2941 RMK AO1 SLP971
SPECI CYNL 021914Z AUTO 24008G22KT 4SM SCT014 BKN020 OVC025 06/04 A2942 RMK AO1 SLP974
SPECI CYNL 021913Z AUTO 23010G22KT 5SM BKN014 BKN022 OVC025 06/04 A2942 RMK AO1 SLP974
METAR CYNL 021900Z AUTO 23012G18KT 4SM SCT014 BKN021 OVC026 06/04 A2942 RMK AO1 SLP974
SPECI CYNL 021858Z AUTO 22010G19KT 5SM SCT014 OVC022 06/04 A2942 RMK AO1 SLP973
SPECI CYNL 021855Z AUTO 22012G21KT 9SM BKN014 BKN022 OVC028 06/04 A2942 RMK AO1 SLP973
METAR CYNL 021800Z AUTO 25013G21KT 9SM SCT016 BKN021 07/04 A2942 RMK AO1 SLP971
SPECI CYNL 021758Z AUTO 24012G21KT 9SM SCT017 BKN023 07/04 A2942 RMK AO1 SLP972
SPECI CYNL 021755Z AUTO 24009G20KT 9SM SCT016 BKN027 07/05 A2942 RMK AO1 PRESRR SLP971
SPECI CYNL 021736Z AUTO 25009G17KT 6SM FEW013 SCT017 BKN024 06/04 A2942 RMK AO1 PRESRR SLP973
SPECI CYNL 021735Z AUTO 25009G17KT 6SM FEW013 SCT017 BKN025 06/04 A2942 RMK AO1 PRESRR SLP974
SPECI CYNL 021712Z AUTO 25009G19KT 6SM VV015 06/04 A2942 RMK AO1 PRESRR SLP975
SPECI CYNL 021710Z AUTO 25009G19KT 8SM VV014 06/04 A2942 RMK AO1 PRESRR SLP975
SPECI CYNL 021705Z AUTO 25009G21KT 5SM VV018 05/04 A2942 RMK AO1 PRESRR SLP975
SPECI CYNL 021703Z AUTO 25010G22KT 2SM VV020 06/04 A2942 RMK AO1 PRESRR SLP976
METAR CYNL 021700Z AUTO 26013G22KT 1 3/4SM SCT015 BKN022 BKN210 06/04 A2942 RMK AO1 PRESRR SLP976
SPECI CYNL 021659Z AUTO 26014G22KT 1 3/4SM SCT015 BKN022 BKN210 06/04 A2942 RMK AO1 PRESRR SLP975
SPECI CYNL 021658Z AUTO 26014G22KT 2 1/2SM SCT014 BKN022 BKN210 06/04 A2942 RMK AO1 PRESRR SLP974
SPECI CYNL 021655Z AUTO 28013G22KT 3SM FEW014 BKN022 BKN240 07/05 A2942 RMK AO1 SLP971
SPECI CYNL 021654Z AUTO 28015G22KT 4SM FEW014 SCT021 BKN025 07/04 A2942 RMK AO1 SLP971
SPECI CYNL 021649Z AUTO 26010G16KT 9SM BKN021 08/04 A2941 RMK AO1 SLP969
SPECI CYNL 021633Z AUTO 24011G20KT 6SM FEW017 SCT026 BKN140 07/04 A2941 RMK AO1 SLP969
SPECI CYNL 021632Z AUTO 24011G20KT 5SM FEW017 BKN026 07/04 A2941 RMK AO1 SLP970
SPECI CYNL 021623Z AUTO 27010G20KT 9SM SCT022 BKN120 07/04 A2941 RMK AO1 SLP968
SPECI CYNL 021616Z AUTO 26010G20KT 3SM FEW017 BKN025 07/04 A2941 RMK AO1 SLP969
SPECI CYNL 021615Z AUTO 26013G20KT 2 1/2SM FEW018 BKN025 07/04 A2941 RMK AO1 SLP969
SPECI CYNL 021608Z AUTO 27009G17KT 9SM FEW018 BKN025 07/04 A2941 RMK AO1 SLP968
SPECI CYNL 021603Z AUTO 26012G17KT 3SM VV024 07/04 A2941 RMK AO1 SLP968
METAR CYNL 021600Z AUTO 26010G19KT 2 1/2SM SCT025 BKN210 08/05 A2940 RMK AO1 SLP966
SPECI CYNL 021559Z AUTO 25011G19KT 2SM SCT025 08/05 A2940 RMK AO1 SLP965
SPECI CYNL 021512Z AUTO 24014G23KT 9SM FEW016 SCT022 BKN032 08/04 A2941 RMK AO1 SLP967
METAR CYNL 021500Z AUTO 24014G24KT 9SM FEW017 BKN023 07/04 A2941 RMK AO1 SLP968
SPECI CYNL 021458Z AUTO 24012G21KT 9SM FEW017 SCT023 BKN031 07/04 A2941 RMK AO1 SLP968
SPECI CYNL 021447Z AUTO 24013G23KT 5SM FEW014 BKN022 07/04 A2941 RMK AO1 SLP968
SPECI CYNL 021446Z AUTO 25011G23KT 3SM FEW014 SCT022 BKN026 07/04 A2941 RMK AO1 SLP968
SPECI CYNL 021445Z AUTO 24012G23KT 2 1/2SM SCT022 BKN031 07/04 A2941 RMK AO1 SLP968
SPECI CYNL 021444Z AUTO 24013G23KT 2SM BKN023 07/04 A2941 RMK AO1 SLP967
SPECI CYNL 021443Z AUTO 25014G23KT 2 1/2SM SCT022 BKN036 08/04 A2941 RMK AO1 SLP967
SPECI CYNL 021436Z AUTO 24012G24KT 9SM SCT021 BKN036 08/04 A2940 RMK AO1 SLP966
SPECI CYNL 021433Z AUTO 25009G24KT 9SM SCT021 BKN029 08/04 A2941 RMK AO1 SLP966
SPECI CYNL 021430Z AUTO 23014G24KT 9SM SCT021 BKN030 08/04 A2941 RMK AO1 SLP966
SPECI CYNL 021413Z AUTO 26013G24KT 9SM SCT018 BKN024 08/03 A2941 RMK AO1 SLP967
SPECI CYNL 021411Z AUTO 25013G24KT 9SM SCT018 BKN025 08/03 A2941 RMK AO1 SLP968
METAR CYNL 021400Z AUTO 24014G22KT 9SM FEW011 BKN018 07/03 A2941 RMK AO1 SLP968
SPECI CYNL 021349Z AUTO 23014G24KT 9SM FEW011 SCT015 BKN024 07/03 A2941 RMK AO1 SLP967
SPECI CYNL 021344Z AUTO 25013G20KT 9SM FEW011 SCT015 07/03 A2941 RMK AO1 SLP968
SPECI CYNL 021340Z AUTO 25009G19KT 9SM SCT014 BKN021 06/04 A2941 RMK AO1 SLP968
SPECI CYNL 021339Z AUTO 26007G19KT 9SM BKN014 06/04 A2941 RMK AO1 SLP968
SPECI CYNL 021325Z AUTO 26010G24KT 9SM BKN015 06/03 A2941 RMK AO1 SLP968
SPECI CYNL 021324Z AUTO 26011G24KT 9SM BKN014 06/03 A2941 RMK AO1 SLP968
SPECI CYNL 021322Z AUTO 26011G24KT 9SM SCT014 BKN017 06/03 A2941 RMK AO1 SLP969
SPECI CYNL 021304Z AUTO 26015G23KT 9SM BKN014 OVC020 06/03 A2941 RMK AO1 SLP969
METAR CYNL 021300Z AUTO 24013G20KT 9SM SCT013 OVC020 06/03 A2941 RMK AO1 SLP969
SPECI CYNL 021244Z AUTO 25011G20KT 7SM SCT013 OVC020 06/04 A2941 RMK AO1 SLP969
SPECI CYNL 021240Z AUTO 25012G20KT 5SM BKN012 OVC020 06/04 A2941 RMK AO1 SLP969
SPECI CYNL 021239Z AUTO 25012G20KT 7SM SCT012 BKN015 OVC020 06/03 A2941 RMK AO1 SLP969
SPECI CYNL 021229Z AUTO 24014G19KT 9SM BKN012 BKN016 OVC022 06/04 A2941 RMK AO1 SLP969
SPECI CYNL 021228Z AUTO 24012G19KT 9SM SCT012 BKN016 OVC022 06/03 A2941 RMK AO1 SLP969
METAR CYNL 021200Z AUTO 25012KT 9SM BKN014 OVC021 06/04 A2941 RMK AO1 SLP968
SPECI CYNL 021157Z AUTO 24012G19KT 9SM BKN014 OVC021 06/04 A2941 RMK AO1 SLP967
SPECI CYNL 021110Z AUTO 23010KT 9SM SCT013 BKN018 BKN024 06/05 A2941 RMK AO1 SLP965
SPECI CYNL 021107Z AUTO 23010KT 9SM BKN012 BKN024 06/05 A2940 RMK AO1 SLP964
METAR CYNL 021100Z AUTO 25010G15KT 9SM FEW011 BKN016 BKN023 06/04 A2940 RMK AO1 SLP964
SPECI CYNL 021034Z AUTO 22010KT 5SM SCT016 BKN023 06/05 A2940 RMK AO1 SLP963
METAR CYNL 021000Z AUTO 22009G16KT 9SM CLR 06/05 A2941 RMK AO1 SLP967
SPECI CYNL 020915Z AUTO 22008G20KT 4SM VV030 06/04 A2942 RMK AO1 WSHFT (09)09 PRESFR SLP970
SPECI CYNL 020913Z AUTO 23009G20KT 4SM FEW003 SCT018 BKN026 07/05 A2942 RMK AO1 WSHFT (09)09 PRESFR SLP970
SPECI CYNL 020912Z AUTO 24010G20KT 3SM FEW003 SCT018 BKN023 07/05 A2942 RMK AO1 WSHFT (09)09 PRESFR SLP970
SPECI CYNL 020911Z AUTO 24011G20KT 1 3/4SM FEW003 BKN019 OVC029 07/05 A2942 RMK AO1 WSHFT (09)09 PRESFR SLP970
SPECI CYNL 020910Z AUTO 21014G20KT 180V240 3/4SM FEW003 BKN019 OVC029 07/05 A2942 RMK AO1 WSHFT (09)09 PRESFR SLP970
SPECI CYNL 020909Z AUTO 24014G20KT 5/8SM FEW003 BKN020 OVC029 07/06 A2942 RMK AO1 WSHFT (09)09 PRESFR SLP970
SPECI CYNL 020908Z AUTO 23013G18KT 1SM FEW011 BKN020 OVC030 08/07 A2942 RMK AO1 PRESFR SLP968
SPECI CYNL 020906Z AUTO 19011G18KT 2 1/2SM FEW011 SCT018 BKN030 08/07 A2941 RMK AO1 PRESFR SLP963
SPECI CYNL 020904Z AUTO 19013G18KT 2 1/2SM FEW011 SCT018 BKN023 08/06 A2941 RMK AO1 PRESFR SLP963
SPECI CYNL 020903Z AUTO 19012G18KT 3SM FEW011 BKN023 BKN031 08/07 A2941 RMK AO1 PRESFR SLP964
METAR CYNL 020900Z AUTO 18011G18KT 4SM FEW011 SCT019 BKN026 08/07 A2941 RMK AO1 PRESFR SLP964
SPECI CYNL 020859Z AUTO 19012G18KT 4SM FEW019 BKN028 BKN033 08/07 A2941 RMK AO1 PRESFR SLP964
SPECI CYNL 020852Z AUTO 19012KT 7SM SCT025 BKN031 08/06 A2941 RMK AO1 PRESFR SLP966
SPECI CYNL 020822Z AUTO 21011G19KT 3SM FEW012 SCT018 OVC026 08/06 A2944 RMK AO1 PRESFR SLP974
SPECI CYNL 020819Z AUTO 21012G19KT 2 1/2SM FEW012 SCT018 BKN022 08/06 A2944 RMK AO1 PRESFR SLP975
SPECI CYNL 020816Z AUTO 21010G18KT 3SM FEW012 BKN020 OVC029 08/06 A2944 RMK AO1 PRESFR SLP976
SPECI CYNL 020814Z AUTO 21012G18KT 2SM FEW013 SCT018 BKN022 08/06 A2944 RMK AO1 PRESFR SLP976
SPECI CYNL 020813Z AUTO 21013G18KT 1 1/2SM FEW013 SCT018 BKN022 08/06 A2944 RMK AO1 PRESFR SLP976
SPECI CYNL 020811Z AUTO 21012G18KT 1 3/4SM SCT018 OVC026 08/06 A2945 RMK AO1 PRESFR SLP977
SPECI CYNL 020810Z AUTO 21012G18KT 2 1/2SM SCT018 BKN022 OVC028 08/06 A2945 RMK AO1 PRESFR SLP977
SPECI CYNL 020809Z AUTO 21011G20KT 2 1/2SM SCT019 OVC027 08/06 A2945 RMK AO1 PRESFR SLP977
SPECI CYNL 020807Z AUTO 21011G20KT 2 1/2SM FEW018 BKN022 OVC028 08/06 A2945 RMK AO1 PRESFR SLP978
SPECI CYNL 020803Z AUTO 21012G20KT 3SM FEW018 BKN023 OVC029 08/06 A2945 RMK AO1 PRESFR SLP978
SPECI CYNL 020802Z AUTO 21010G20KT 2 1/2SM SCT018 BKN023 OVC029 08/06 A2945 RMK AO1 PRESFR SLP978
SPECI CYNL 020801Z AUTO 21009G20KT 3SM SCT018 BKN023 OVC029 08/06 A2945 RMK AO1 PRESFR SLP978
METAR CYNL 020800Z AUTO 21011G22KT 2 1/2SM FEW012 BKN023 OVC028 08/06 A2945 RMK AO1 PRESFR SLP978
SPECI CYNL 020758Z AUTO 20009G24KT 3SM FEW012 SCT018 BKN023 08/06 A2945 RMK AO1 PRESFR SLP978
SPECI CYNL 020744Z AUTO 20014G19KT 5SM FEW019 SCT024 BKN029 08/06 A2945 RMK AO1 PRESFR SLP980
SPECI CYNL 020743Z AUTO 20014G19KT 6SM FEW019 BKN024 08/06 A2945 RMK AO1 PRESFR SLP980
SPECI CYNL 020737Z AUTO 19010G17KT 7SM FEW019 BKN026 08/07 A2946 RMK AO1 PRESFR SLP981
SPECI CYNL 020725Z AUTO 19014KT 9SM SCT025 08/06 A2947 RMK AO1 PRESFR SLP984
SPECI CYNL 020724Z AUTO 19013G18KT 9SM BKN025 08/06 A2947 RMK AO1 PRESFR SLP984
SPECI CYNL 020723Z AUTO 19011G18KT 9SM SCT025 BKN033 08/06 A2947 RMK AO1 PRESFR SLP984
SPECI CYNL 020720Z AUTO 18013G18KT 9SM BKN025 08/06 A2947 RMK AO1 PRESFR SLP985
SPECI CYNL 020719Z AUTO 18012G18KT 9SM SCT024 BKN032 08/06 A2947 RMK AO1 PRESFR SLP985
SPECI CYNL 020717Z AUTO 19012G18KT 8SM SCT023 BKN027 08/06 A2947 RMK AO1 PRESFR SLP985
SPECI CYNL 020716Z AUTO 19012G18KT 7SM BKN023 08/06 A2947 RMK AO1 PRESFR SLP985
SPECI CYNL 020709Z AUTO 19011G18KT 9SM SCT021 BKN028 08/06 A2947 RMK AO1 PRESFR SLP986
METAR CYNL 020700Z AUTO 19011G17KT 9SM BKN022 08/06 A2948 RMK AO1 PRESFR SLP988
SPECI CYNL 020653Z AUTO 18009KT 9SM FEW017 BKN023 08/07 A2948 RMK AO1 PRESFR SLP989
SPECI CYNL 020652Z AUTO 18010G16KT 9SM SCT020 BKN028 08/07 A2948 RMK AO1 PRESFR SLP990
SPECI CYNL 020651Z AUTO 18010G16KT 9SM BKN022 08/07 A2948 RMK AO1 PRESFR SLP990
METAR CYNL 020600Z AUTO 20008KT 9SM SCT030 08/06 A2952 RMK AO1 PRESFR SLP002
SPECI CYNL 020550Z AUTO 21006KT 9SM FEW019 SCT026 BKN033 07/06 A2952 RMK AO1 PRESFR SLP005
SPECI CYNL 020533Z AUTO 21008G15KT 4SM VV026 07/06 A2953 RMK AO1 PRESFR SLP009
SPECI CYNL 020532Z AUTO 22009G15KT 4SM BKN019 BKN026 OVC033 07/06 A2953 RMK AO1 PRESFR SLP009
SPECI CYNL 020531Z AUTO 22009G15KT 2 1/2SM SCT018 BKN026 OVC033 07/06 A2953 RMK AO1 PRESFR SLP009
SPECI CYNL 020530Z AUTO 23008G15KT 1 1/2SM SCT019 OVC026 07/06 A2953 RMK AO1 PRESFR SLP009
SPECI CYNL 020528Z AUTO 23008G15KT 1 3/4SM BKN018 OVC025 07/06 A2954 RMK AO1 PRESFR SLP010
SPECI CYNL 020527Z AUTO 24008G15KT 2SM BKN018 BKN024 OVC029 07/06 A2954 RMK AO1 PRESFR SLP010
SPECI CYNL 020524Z AUTO 25009G15KT 1 3/4SM BKN018 BKN024 OVC029 07/06 A2954 RMK AO1 PRESFR SLP010
SPECI CYNL 020521Z AUTO 24007KT 2 1/2SM BKN017 BKN030 OVC035 07/06 A2954 RMK AO1 PRESFR SLP010
SPECI CYNL 020517Z AUTO 26007KT 3SM SCT018 BKN023 BKN029 07/06 A2954 RMK AO1 PRESFR SLP010
SPECI CYNL 020515Z AUTO 26006KT 2SM BKN020 BKN028 OVC036 08/06 A2954 RMK AO1 PRESFR SLP011
SPECI CYNL 020513Z AUTO 26008KT 2 1/2SM FEW012 SCT019 BKN026 08/06 A2954 RMK AO1 PRESFR SLP011
SPECI CYNL 020512Z AUTO 26007KT 3SM FEW012 SCT019 BKN023 08/05 A2954 RMK AO1 PRESFR SLP011
SPECI CYNL 020505Z AUTO 22008KT 180V260 4SM FEW017 BKN029 OVC039 08/06 A2955 RMK AO1 PRESFR SLP012
METAR CYNL 020500Z AUTO 18008KT 9SM FEW019 BKN031 OVC039 08/05 A2954 RMK AO1 PRESFR SLP009
METAR CYNL 020400Z AUTO 19006KT 9SM SCT049 09/05 A2958 RMK AO1 SLP024
METAR CYNL 020300Z AUTO 20004KT 9SM SCT050 BKN076 09/04 A2959 RMK AO1 SLP029
METAR CYNL 020200Z AUTO 22005KT 9SM FEW035 SCT042 BKN070 09/04 A2962 RMK AO1 PRESFR SLP037
METAR CYNL 020100Z AUTO 23010G18KT 9SM CLR 10/02 A2963 RMK AO1 SLP043
METAR CYNL 020000Z AUTO 24011G22KT 9SM FEW041 11/03 A2965 RMK AO1 SLP047
SPECI CYNL 012307Z AUTO 26011G20KT 9SM SCT058 12/00 A2965 RMK AO1 WSHFT (23)07 SLP048
METAR CYNL 012300Z AUTO 25012G20KT 9SM FEW050 12/01 A2965 RMK AO1 WSHFT (22)53 SLP049
SPECI CYNL 012253Z AUTO 21011G17KT 9SM CLR 12/M00 A2965 RMK AO1 WSHFT (22)53 SLP047
METAR CYNL 012200Z AUTO 24010G15KT 9SM SCT054 12/M01 A2966 RMK AO1 WSHFT (21)53 SLP053
SPECI CYNL 012153Z AUTO 27010G19KT 9SM BKN054 11/M02 A2966 RMK AO1 WSHFT (21)53 SLP053
METAR CYNL 012100Z AUTO 24011G20KT 9SM FEW052 12/M02 A2967 RMK AO1 SLP056
METAR CYNL 012000Z AUTO 23011G18KT 9SM SCT054 11/M01 A2968 RMK AO1 SLP060
SPECI CYNL 011931Z AUTO 29011G18KT 9SM FEW052 SCT200 11/M02 A2969 RMK AO1 WSHFT (19)31 SLP059
METAR CYNL 011900Z AUTO 26010G17KT 9SM FEW050 11/M01 A2969 RMK AO1 SLP059
METAR CYNL 011800Z AUTO 28009G19KT 9SM FEW045 SCT200 10/01 A2969 RMK AO1 SLP060
METAR CYNL 011700Z AUTO 29010G17KT 9SM SCT025 BKN035 08/04 A2971 RMK AO1 SLP064
SPECI CYNL 011658Z AUTO 29009G17KT 9SM SCT025 BKN034 08/04 A2971 RMK AO1 SLP063
SPECI CYNL 011654Z AUTO 29011G16KT 9SM BKN025 08/04 A2970 RMK AO1 SLP062
SPECI CYNL 011611Z AUTO 27008KT 9SM SCT021 BKN033 08/04 A2970 RMK AO1 SLP060
SPECI CYNL 011609Z AUTO 27008KT 9SM SCT021 BKN027 08/04 A2970 RMK AO1 SLP060
SPECI CYNL 011604Z AUTO 29009KT 3SM BKN020 BKN180 08/04 A2970 RMK AO1 SLP060
SPECI CYNL 011602Z AUTO 28008KT 5SM SCT020 BKN027 09/05 A2970 RMK AO1 SLP059
METAR CYNL 011600Z AUTO 28008KT 9SM BKN020 09/04 A2970 RMK AO1 SLP059
SPECI CYNL 011552Z AUTO 26007KT 9SM SCT021 BKN027 08/04 A2970 RMK AO1 SLP060
SPECI CYNL 011506Z AUTO 29009G15KT 9SM SCT015 08/05 A2970 RMK AO1 SLP060
SPECI CYNL 011505Z AUTO 27009G15KT 9SM SCT015 BKN025 08/04 A2970 RMK AO1 SLP061
METAR CYNL 011500Z AUTO 27011KT 9SM FEW011 SCT015 BKN023 08/05 A2970 RMK AO1 SLP060
SPECI CYNL 011448Z AUTO 30010KT 9SM FEW011 SCT014 08/04 A2969 RMK AO1 SLP058
SPECI CYNL 011438Z AUTO 29010KT 9SM SCT011 OVC016 08/05 A2969 RMK AO1 SLP057
SPECI CYNL 011437Z AUTO 29009KT 9SM SCT011 BKN014 OVC018 08/05 A2969 RMK AO1 SLP057
SPECI CYNL 011408Z AUTO 32007KT 9SM SCT014 BKN018 07/05 A2969 RMK AO1 SLP055
METAR CYNL 011400Z AUTO 32008KT 9SM BKN013 BKN019 07/05 A2969 RMK AO1 SLP056
SPECI CYNL 011357Z AUTO 31007KT 9SM SCT012 BKN015 BKN019 07/04 A2969 RMK AO1 SLP055
SPECI CYNL 011329Z AUTO 29007KT 9SM SCT008 OVC010 06/05 A2969 RMK AO1 SLP054
SPECI CYNL 011326Z AUTO 29008KT 9SM BKN008 OVC010 06/05 A2969 RMK AO1 SLP054
SPECI CYNL 011325Z AUTO 29006KT 9SM SCT007 OVC010 06/05 A2969 RMK AO1 SLP054
SPECI CYNL 011316Z AUTO 29007KT 9SM BKN007 OVC010 06/06 A2969 RMK AO1 SLP054
SPECI CYNL 011315Z AUTO 30008KT 9SM SCT007 OVC010 06/06 A2969 RMK AO1 SLP054
METAR CYNL 011300Z AUTO 32007KT 9SM BKN009 OVC015 06/05 A2969 RMK AO1 SLP056
SPECI CYNL 011259Z AUTO 32007KT 9SM BKN009 OVC015 06/05 A2969 RMK AO1 SLP056
SPECI CYNL 011257Z AUTO 32008KT 9SM SCT009 BKN010 OVC015 06/05 A2969 RMK AO1 SLP056
SPECI CYNL 011243Z AUTO 31007KT 9SM FEW006 BKN008 OVC015 06/05 A2969 RMK AO1 SLP055
SPECI CYNL 011235Z AUTO 29008KT 9SM SCT006 BKN010 OVC015 06/06 A2969 RMK AO1 SLP055
SPECI CYNL 011213Z AUTO 29005KT 4SM FEW005 BKN008 BKN017 06/06 A2968 RMK AO1 SLP054
SPECI CYNL 011209Z AUTO 30007KT 4SM SCT007 BKN011 BKN017 06/05 A2968 RMK AO1 SLP053
SPECI CYNL 011207Z AUTO 30005KT 2SM FEW005 BKN011 BKN017 06/06 A2968 RMK AO1 SLP053
SPECI CYNL 011202Z AUTO 28007KT 1 1/2SM FEW008 SCT012 BKN018 06/05 A2968 RMK AO1 SLP054
METAR CYNL 011200Z AUTO 28007KT 1 3/4SM SCT010 BKN017 BKN024 06/05 A2968 RMK AO1 SLP054
SPECI CYNL 011159Z AUTO 29007KT 2SM FEW008 SCT013 BKN019 06/05 A2968 RMK AO1 SLP054
SPECI CYNL 011158Z AUTO 29006KT 2 1/2SM SCT010 BKN018 BKN025 06/05 A2968 RMK AO1 SLP054
SPECI CYNL 011156Z AUTO 28006KT 9SM SCT010 BKN019 OVC032 06/05 A2968 RMK AO1 SLP052
SPECI CYNL 011149Z AUTO 30008KT 9SM FEW012 BKN025 OVC031 06/05 A2968 RMK AO1 SLP051
SPECI CYNL 011148Z AUTO 29006KT 9SM FEW012 SCT025 BKN031 06/05 A2967 RMK AO1 SLP051
SPECI CYNL 011145Z AUTO 29006KT 9SM FEW017 BKN029 OVC041 06/05 A2968 RMK AO1 SLP052
SPECI CYNL 011140Z AUTO 30006KT 9SM FEW013 SCT024 BKN031 06/05 A2967 RMK AO1 SLP051
SPECI CYNL 011136Z AUTO 29007KT 9SM FEW013 OVC029 06/05 A2968 RMK AO1 SLP051
SPECI CYNL 011130Z AUTO 30007KT 9SM FEW013 OVC030 06/05 A2967 RMK AO1 SLP050
SPECI CYNL 011116Z AUTO 31008KT 9SM FEW012 BKN025 06/05 A2967 RMK AO1 SLP050
SPECI CYNL 011107Z AUTO 30005KT 6SM FEW009 SCT019 BKN034 06/05 A2967 RMK AO1 SLP048
METAR CYNL 011100Z AUTO 29006KT 9SM FEW010 SCT019 06/05 A2967 RMK AO1 SLP049
SPECI CYNL 011047Z AUTO 29007KT 8SM FEW008 SCT010 OVC020 06/06 A2968 RMK AO1 SLP054
SPECI CYNL 011045Z AUTO 29009KT 7SM FEW008 BKN011 OVC021 06/06 A2969 RMK AO1 SLP054
SPECI CYNL 011043Z AUTO 28008KT 9SM FEW008 SCT010 OVC020 06/06 A2969 RMK AO1 SLP054
SPECI CYNL 011025Z AUTO 27008G16KT 5SM SCT008 BKN012 OVC040 07/06 A2968 RMK AO1 SLP053
SPECI CYNL 011022Z AUTO 27009KT 4SM SCT008 BKN024 OVC040 07/06 A2968 RMK AO1 SLP053
SPECI CYNL 011021Z AUTO 27007KT 4SM SCT008 BKN029 OVC040 07/06 A2968 RMK AO1 SLP053
SPECI CYNL 011020Z AUTO 27008KT 4SM SCT008 BKN030 OVC040 07/06 A2968 RMK AO1 SLP053
SPECI CYNL 011019Z AUTO 27008KT 5SM SCT008 BKN029 OVC040 07/06 A2968 RMK AO1 SLP053
SPECI CYNL 011017Z AUTO 27007KT 5SM FEW008 SCT010 BKN030 07/06 A2968 RMK AO1 SLP053
SPECI CYNL 011016Z AUTO 27008KT 5SM SCT009 BKN029 OVC040 07/06 A2968 RMK AO1 SLP053
SPECI CYNL 011003Z AUTO 28010G16KT 4SM FEW009 SCT015 OVC031 07/06 A2968 RMK AO1 SLP052
METAR CYNL 011000Z AUTO 28010G16KT 5SM VV031 07/06 A2968 RMK AO1 SLP052
SPECI CYNL 010957Z AUTO 28010G16KT 4SM FEW009 SCT015 OVC031 07/06 A2968 RMK AO1 SLP050
SPECI CYNL 010948Z AUTO 29006KT 3SM FEW010 SCT021 OVC032 07/06 A2968 RMK AO1 SLP048
SPECI CYNL 010946Z AUTO 29007KT 3SM VV023 07/06 A2968 RMK AO1 SLP048
SPECI CYNL 010937Z AUTO 30007KT 3SM FEW012 SCT023 OVC032 07/06 A2967 RMK AO1 SLP048
SPECI CYNL 010934Z AUTO 29006KT 4SM VV029 07/06 A2967 RMK AO1 SLP047
SPECI CYNL 010926Z AUTO 30005KT 4SM VV032 07/06 A2967 RMK AO1 SLP047
SPECI CYNL 010923Z AUTO 30006KT 5SM VV025 07/06 A2967 RMK AO1 SLP047
SPECI CYNL 010918Z AUTO 30005KT 4SM VV024 07/06 A2968 RMK AO1 SLP048
SPECI CYNL 010915Z AUTO 30003KT 5SM VV025 07/06 A2967 RMK AO1 SLP048
SPECI CYNL 010912Z AUTO 31004KT 4SM VV024 07/07 A2968 RMK AO1 SLP048
SPECI CYNL 010908Z AUTO 31004KT 4SM VV028 07/06 A2968 RMK AO1 SLP048
SPECI CYNL 010901Z AUTO 30006G15KT 4SM SCT010 BKN030 OVC047 07/06 A2968 RMK AO1 SLP051
METAR CYNL 010900Z AUTO 30006G15KT 4SM FEW010 BKN028 OVC043 07/06 A2969 RMK AO1 SLP052
SPECI CYNL 010859Z AUTO 30008G15KT 4SM FEW010 BKN028 OVC043 07/06 A2969 RMK AO1 SLP053
SPECI CYNL 010856Z AUTO 29011G17KT 6SM VV031 07/06 A2969 RMK AO1 SLP054
SPECI CYNL 010855Z AUTO 29010G18KT 6SM VV029 07/06 A2969 RMK AO1 SLP054
SPECI CYNL 010821Z AUTO 32012G17KT 8SM FEW016 SCT034 08/06 A2968 RMK AO1 SLP051
SPECI CYNL 010819Z AUTO 31010G16KT 7SM VV028 09/06 A2968 RMK AO1 SLP051
METAR CYNL 010800Z AUTO 32008G15KT 9SM FEW080 09/06 A2968 RMK AO1 SLP050
METAR CYNL 010700Z AUTO 30008G17KT 9SM FEW027 SCT072 11/07 A2968 RMK AO1 SLP047
METAR CYNL 010600Z AUTO 26008G15KT 9SM FEW030 13/07 A2969 RMK AO1 SLP049
METAR CYNL 010500Z AUTO 27006KT 9SM FEW092 14/07 A2969 RMK AO1 SLP050
METAR CYNL 010400Z AUTO 26004KT 9SM FEW045 14/07 A2970 RMK AO1 SLP054
METAR CYNL 010300Z AUTO 29004KT 9SM FEW045 15/09 A2969 RMK AO1 SLP053
METAR CYNL 010200Z AUTO 31008G21KT 9SM FEW047 SCT058 17/07 A2968 RMK AO1 SLP048
METAR CYNL 010100Z AUTO 29010G20KT 9SM CLR 17/07 A2968 RMK AO1 SLP045
METAR CYNL 010000Z AUTO 28012G20KT 9SM BKN070 17/07 A2966 RMK AO1 SLP042
SPECI CYNL 302315Z AUTO 32007G16KT 3SM FEW036 SCT046 BKN058 15/12 A2967 RMK AO1 SLP045
SPECI CYNL 302314Z AUTO 32007G16KT 2 1/2SM FEW036 SCT046 BKN058 15/12 A2967 RMK AO1 SLP045
METAR CYNL 302300Z AUTO 31008G15KT 9SM FEW058 SCT072 17/10 A2966 RMK AO1 SLP041
SPECI CYNL 302228Z AUTO 33012G24KT 9SM SCT044 18/09 A2967 RMK AO1 WSHFT (22)28 SLP042
METAR CYNL 302200Z AUTO 31011G22KT 9SM FEW039 19/08 A2965 RMK AO1 SLP036
METAR CYNL 302100Z AUTO 30009G18KT 9SM SCT029 17/10 A2965 RMK AO1 SLP040
SPECI CYNL 302048Z AUTO 30009G15KT 9SM BKN030 17/10 A2965 RMK AO1 SLP039
SPECI CYNL 302046Z AUTO 30009G17KT 9SM BKN029 17/10 A2965 RMK AO1 SLP039
METAR CYNL 302000Z AUTO 30010G19KT 9SM FEW026 SCT092 17/10 A2965 RMK AO1 SLP038
METAR CYNL 301900Z AUTO 29013G21KT 9SM FEW022 SCT030 17/10 A2964 RMK AO1 SLP034
SPECI CYNL 301812Z AUTO 30011G21KT 9SM SCT020 BKN031 BKN170 15/10 A2963 RMK AO1 SLP031
SPECI CYNL 301808Z AUTO 30013G20KT 9SM SCT019 BKN023 BKN170 15/10 A2962 RMK AO1 SLP031
METAR CYNL 301800Z AUTO 30011G17KT 9SM FEW019 SCT024 BKN031 15/11 A2962 RMK AO1 SLP030
SPECI CYNL 301756Z AUTO 30010G19KT 9SM SCT018 BKN030 14/11 A2962 RMK AO1 SLP030
SPECI CYNL 301744Z AUTO 30010G18KT 9SM FEW014 BKN020 BKN028 14/11 A2962 RMK AO1 SLP029
SPECI CYNL 301739Z AUTO 30012KT 9SM FEW014 SCT019 BKN029 14/11 A2962 RMK AO1 SLP029
SPECI CYNL 301726Z AUTO 31010G15KT 7SM FEW013 BKN017 BKN025 14/11 A2961 RMK AO1 SLP027
SPECI CYNL 301707Z AUTO 30008KT 9SM FEW011 SCT017 OVC025 13/11 A2961 RMK AO1 SLP028
METAR CYNL 301700Z AUTO 31010KT 9SM FEW009 SCT012 BKN017 13/11 A2961 RMK AO1 SLP029
SPECI CYNL 301655Z AUTO 31007G16KT 9SM FEW009 SCT012 BKN016 13/11 A2961 RMK AO1 SLP029
SPECI CYNL 301654Z AUTO 31009G16KT 9SM SCT011 BKN016 BKN019 13/11 A2962 RMK AO1 SLP029
SPECI CYNL 301653Z AUTO 30010G17KT 9SM FEW008 SCT011 BKN013 13/11 A2961 RMK AO1 SLP030
SPECI CYNL 301652Z AUTO 30010G19KT 9SM FEW009 SCT013 OVC018 13/11 A2961 RMK AO1 SLP030
SPECI CYNL 301627Z AUTO 31010G21KT 9SM FEW008 SCT010 OVC014 12/11 A2960 RMK AO1 SLP026
SPECI CYNL 301622Z AUTO 31011G21KT 9SM FEW007 SCT010 OVC015 12/11 A2960 RMK AO1 SLP026
SPECI CYNL 301621Z AUTO 31008G19KT 9SM SCT007 BKN010 OVC015 12/11 A2960 RMK AO1 SLP026
SPECI CYNL 301607Z AUTO 31013G20KT 9SM BKN008 BKN010 OVC017 12/11 A2960 RMK AO1 SLP025
SPECI CYNL 301606Z AUTO 31011G20KT 9SM SCT008 BKN010 OVC016 12/11 A2960 RMK AO1 SLP025
METAR CYNL 301600Z AUTO 30010G16KT 5SM BKN008 OVC017 12/11 A2960 RMK AO1 SLP025
SPECI CYNL 301554Z AUTO 30009G18KT 8SM BKN008 BKN013 OVC021 12/11 A2960 RMK AO1 SLP025
SPECI CYNL 301549Z AUTO 31010G18KT 9SM SCT008 BKN010 BKN015 12/11 A2960 RMK AO1 SLP025
SPECI CYNL 301548Z AUTO 31010G18KT 9SM FEW007 BKN009 BKN021 12/11 A2960 RMK AO1 SLP025
SPECI CYNL 301546Z AUTO 31008G17KT 9SM FEW007 BKN010 BKN021 12/11 A2960 RMK AO1 SLP024
SPECI CYNL 301539Z AUTO 31009G16KT 9SM FEW007 BKN009 BKN020 12/11 A2960 RMK AO1 SLP024
SPECI CYNL 301535Z AUTO 31009KT 5SM SCT007 BKN010 BKN020 12/11 A2960 RMK AO1 SLP023
SPECI CYNL 301532Z AUTO 31008KT 4SM FEW007 BKN009 BKN020 12/12 A2960 RMK AO1 SLP023
SPECI CYNL 301530Z AUTO 30008KT 2SM FEW007 BKN010 BKN020 12/12 A2960 RMK AO1 SLP023
SPECI CYNL 301528Z AUTO 32010KT 1 1/4SM SCT008 BKN010 OVC028 12/12 A2960 RMK AO1 SLP023
SPECI CYNL 301527Z AUTO 31010KT 1 3/4SM BKN009 OVC029 12/11 A2960 RMK AO1 SLP023
SPECI CYNL 301526Z AUTO 30009KT 4SM BKN010 BKN026 OVC030 12/11 A2960 RMK AO1 SLP023
SPECI CYNL 301523Z AUTO 31008KT 9SM BKN009 OVC031 12/11 A2960 RMK AO1 SLP023
SPECI CYNL 301522Z AUTO 31007G15KT 9SM BKN010 BKN023 OVC033 12/11 A2960 RMK AO1 SLP023
SPECI CYNL 301521Z AUTO 32007G15KT 9SM BKN009 BKN025 OVC033 12/11 A2960 RMK AO1 SLP023
METAR CYNL 301500Z AUTO 32007G18KT 9SM SCT009 BKN013 OVC034 13/12 A2960 RMK AO1 SLP023
SPECI CYNL 301457Z AUTO 31007G18KT 9SM SCT009 BKN012 OVC035 12/12 A2960 RMK AO1 SLP022
METAR CYNL 301400Z AUTO 32007KT 7SM BKN007 BKN019 OVC034 12/12 A2959 RMK AO1 SLP023
SPECI CYNL 301353Z AUTO 31009KT 8SM BKN007 BKN025 OVC036 12/12 A2960 RMK AO1 SLP022
SPECI CYNL 301350Z AUTO 32008KT 6SM SCT007 BKN010 BKN027 12/12 A2960 RMK AO1 SLP023
SPECI CYNL 301343Z AUTO 32007KT 3SM BKN007 BKN025 OVC032 12/12 A2960 RMK AO1 SLP023
SPECI CYNL 301341Z AUTO 32009KT 2SM BKN007 OVC030 12/12 A2960 RMK AO1 SLP023
SPECI CYNL 301339Z AUTO 32009KT 2 1/2SM SCT007 BKN014 BKN025 12/12 A2960 RMK AO1 SLP023
SPECI CYNL 301338Z AUTO 32009KT 3SM SCT007 BKN014 BKN025 12/12 A2960 RMK AO1 SLP023
SPECI CYNL 301333Z AUTO 32008KT 3SM SCT007 BKN015 BKN024 12/12 A2960 RMK AO1 SLP023
SPECI CYNL 301331Z AUTO 32008KT 3SM VV021 12/12 A2960 RMK AO1 SLP023
SPECI CYNL 301326Z AUTO 32007KT 3SM SCT007 BKN013 BKN017 12/12 A2960 RMK AO1 SLP023
SPECI CYNL 301322Z AUTO 32007KT 3SM SCT006 BKN009 BKN013 12/12 A2960 RMK AO1 SLP023
SPECI CYNL 301307Z AUTO 32007KT 2 1/2SM SCT005 BKN009 BKN012 12/12 A2960 RMK AO1 SLP023
SPECI CYNL 301306Z AUTO 32006KT 3SM SCT005 BKN009 BKN012 12/12 A2960 RMK AO1 SLP023
SPECI CYNL 301303Z AUTO 32007KT 2SM BKN005 OVC012 12/12 A2960 RMK AO1 SLP023
SPECI CYNL 301301Z AUTO 32005KT 1 3/4SM BKN005 BKN009 OVC012 12/12 A2960 RMK AO1 SLP024
METAR CYNL 301300Z AUTO 33006KT 2SM BKN005 BKN009 OVC012 12/12 A2960 RMK AO1 SLP024
SPECI CYNL 301259Z AUTO 32006KT 1 3/4SM BKN005 BKN009 OVC012 12/12 A2960 RMK AO1 SLP024
SPECI CYNL 301256Z AUTO 32005KT 1 1/4SM BKN005 OVC010 12/12 A2960 RMK AO1 SLP023
SPECI CYNL 301255Z AUTO 33005KT 1 3/4SM OVC005 12/12 A2960 RMK AO1 SLP023
SPECI CYNL 301253Z AUTO 33005KT 2SM OVC005 12/12 A2960 RMK AO1 SLP023
SPECI CYNL 301248Z AUTO 32006KT 1 1/2SM OVC005 12/12 A2960 RMK AO1 SLP023
SPECI CYNL 301246Z AUTO 33005KT 1 1/4SM BKN005 OVC009 12/12 A2960 RMK AO1 SLP023
SPECI CYNL 301244Z AUTO 33004KT 1 3/4SM BKN005 OVC009 12/12 A2960 RMK AO1 SLP023
SPECI CYNL 301239Z AUTO 32005KT 2SM OVC005 12/12 A2960 RMK AO1 SLP024
SPECI CYNL 301238Z AUTO 32005KT 1 3/4SM OVC005 12/12 A2960 RMK AO1 SLP024
SPECI CYNL 301236Z AUTO 32005KT 2 1/2SM OVC005 12/12 A2960 RMK AO1 SLP024
SPECI CYNL 301221Z AUTO 32004KT 3SM BKN005 OVC008 12/12 A2960 RMK AO1 SLP024
SPECI CYNL 301209Z AUTO 31004KT 4SM OVC004 12/12 A2960 RMK AO1 SLP025
METAR CYNL 301200Z AUTO 31003KT 2SM BKN004 OVC008 12/12 A2960 RMK AO1 SLP025
SPECI CYNL 301159Z AUTO 32004KT 2 1/2SM BKN004 OVC009 12/12 A2960 RMK AO1 SLP024
SPECI CYNL 301154Z AUTO 32005KT 3SM BKN004 OVC010 11/11 A2960 RMK AO1 SLP024
SPECI CYNL 301143Z AUTO 33004KT 2SM BKN004 BKN012 OVC014 11/11 A2961 RMK AO1 SLP025
SPECI CYNL 301142Z AUTO 32004KT 1 3/4SM BKN005 OVC012 11/11 A2961 RMK AO1 SLP025
SPECI CYNL 301140Z AUTO 32004KT 2 1/2SM BKN005 OVC012 11/11 A2961 RMK AO1 SLP025
SPECI CYNL 301132Z AUTO 31004KT 9SM SCT005 OVC012 11/11 A2961 RMK AO1 SLP026